Latitude: N 50° 09' 49" Longitude: W 05° 11' 53" Elevation: 168m ASL

There are 10 visitors online

Adverts

<- Previous Day | Today | Next Day ->

All Data for 07 March 2018

Time
A - D
Temp
A - D
Dew Point
A - D
Humidity
A - D
Pressure
A - D
Wind
A - D
Wind Dir Gust
A - D
Rain Rate
A - D
Rain Total
00:02 4.1 3.7 97 990.9 0.7 W 2.2 0.0 0.0
00:03 4.1 3.7 97 991.1 0.7 W 2.2 0.0 0.0
00:04 4.1 3.7 97 991.1 0.7 W 2.2 0.0 0.0
00:06 4.1 3.7 97 991.2 0.7 W 2.2 0.0 0.0
00:07 3.9 3.5 97 991.0 0.0 W 1.6 0.0 0.0
00:09 3.9 3.5 97 991.1 0.7 W 1.6 0.0 0.0
00:10 3.9 3.5 97 991.2 0.0 W 1.6 0.0 0.0
00:11 3.8 3.4 97 991.1 0.0 W 1.6 0.0 0.0
00:13 3.8 3.4 97 990.9 0.0 W 1.6 0.0 0.0
00:14 3.8 3.4 97 991.1 0.0 W 1.6 0.0 0.0
00:16 3.7 3.3 97 991.1 0.0 W 1.6 0.0 0.0
00:17 3.7 3.3 97 991.0 0.0 W 1.6 0.0 0.0
00:19 3.6 3.2 97 991.1 0.0 W 0.7 0.0 0.0
00:20 3.6 3.2 97 991.1 0.0 W 0.7 0.0 0.0
00:21 3.6 3.2 97 991.1 0.0 W 0.7 0.0 0.0
00:22 3.6 3.2 97 991.0 0.0 W 0.7 0.0 0.0
00:23 3.6 3.2 97 991.2 0.0 W 0.7 0.0 0.0
00:24 3.5 3.1 97 991.2 0.0 W 0.7 0.0 0.0
00:25 3.5 3.1 97 991.2 0.0 W 0.7 0.0 0.0
00:26 3.5 3.1 97 991.2 0.7 W 0.7 0.0 0.0
00:27 3.4 3.0 97 991.1 0.0 W 0.7 0.0 0.0
00:28 3.4 3.0 97 991.1 0.0 W 0.7 0.0 0.0
00:29 3.4 3.0 97 991.3 0.0 W 0.7 0.0 0.0
00:30 3.4 3.0 97 991.2 0.0 W 0.7 0.0 0.0
00:31 3.4 3.0 97 991.2 0.0 W 0.7 0.0 0.0
00:33 3.3 2.9 97 991.2 0.0 W 0.7 0.0 0.0
00:34 3.3 2.9 97 991.2 0.0 W 0.7 0.0 0.0
00:35 3.3 2.9 97 991.2 0.7 W 0.7 0.0 0.0
00:36 3.3 2.9 97 991.2 0.0 W 0.7 0.0 0.0
00:37 3.3 2.9 97 991.2 0.0 W 0.7 0.0 0.0
00:38 3.3 2.9 97 991.0 0.7 W 0.7 0.0 0.0
00:39 3.3 2.9 97 991.2 0.0 W 0.7 0.0 0.0
00:40 3.3 2.9 97 991.2 0.7 W 0.7 0.0 0.0
00:41 3.3 2.9 97 991.2 0.7 W 0.7 0.0 0.0
00:42 3.3 2.9 97 991.2 0.0 W 0.7 0.0 0.0
00:43 3.3 2.9 97 991.3 0.0 W 0.7 0.0 0.0
00:44 3.3 2.9 97 991.2 0.0 W 0.7 0.0 0.0
00:45 3.2 2.8 97 991.2 0.0 W 0.7 0.0 0.0
00:46 3.2 2.8 97 991.3 0.0 W 0.7 0.0 0.0
00:47 3.2 2.8 97 991.3 0.0 W 0.7 0.0 0.0
00:48 3.2 2.8 97 991.2 0.0 W 0.7 0.0 0.0
00:49 3.2 2.8 97 991.3 0.0 W 0.7 0.0 0.0
00:51 3.2 2.8 97 991.2 0.7 W 0.7 0.0 0.0
00:52 3.1 2.7 97 991.3 0.7 W 0.7 0.0 0.0
00:53 3.1 2.7 97 991.4 0.0 W 0.7 0.0 0.0
00:54 3.1 2.7 97 991.3 0.0 W 0.7 0.0 0.0
00:55 3.0 2.6 97 991.4 0.7 W 0.7 0.0 0.0
00:57 3.0 2.6 97 991.5 0.0 W 0.7 0.0 0.0
00:58 3.0 2.6 97 991.5 0.0 W 0.7 0.0 0.0
00:59 3.0 2.6 97 991.6 0.0 W 0.7 0.0 0.0
01:00 3.0 2.6 97 991.6 0.0 W 0.7 0.0 0.0
01:02 3.0 2.6 97 991.6 0.0 W 0.7 0.0 0.0
01:03 3.0 2.6 97 991.6 0.0 W 0.7 0.0 0.0
01:04 3.0 2.6 97 991.6 0.0 W 0.7 0.0 0.0
01:05 3.0 2.6 97 991.5 0.0 W 0.0 0.0 0.0
01:07 3.0 2.6 97 991.7 0.7 W 0.7 0.0 0.0
01:08 3.0 2.6 97 991.7 0.7 W 0.7 0.0 0.0
01:09 3.0 2.6 97 991.6 1.6 W 1.6 0.0 0.0
01:10 3.0 2.6 97 991.7 0.7 W 1.6 0.0 0.0
01:12 3.0 2.6 97 991.5 0.7 W 1.6 0.0 0.0
01:13 3.0 2.6 97 991.7 0.0 W 1.6 0.0 0.0
01:14 3.0 2.6 97 991.6 0.7 W 1.6 0.0 0.0
01:15 3.0 2.6 97 991.7 0.7 W 1.6 0.0 0.0
01:16 3.1 2.7 97 991.6 0.0 W 1.6 0.0 0.0
01:17 3.1 2.7 97 991.6 0.7 W 1.6 0.0 0.0
01:18 3.1 2.8 98 991.7 0.7 W 1.6 0.0 0.0
01:20 3.1 2.8 98 991.8 2.2 W 2.2 0.0 0.0
01:21 3.1 2.8 98 991.8 3.8 W 3.8 0.0 0.0
01:22 3.1 2.8 98 991.8 3.8 W 3.8 0.0 0.0
01:23 3.2 2.9 98 991.8 3.1 W 3.8 0.0 0.0
01:24 3.2 2.9 98 991.8 3.1 W 3.8 0.0 0.0
01:25 3.3 3.0 98 991.9 7.6 NW 7.6 0.0 0.0
01:26 3.3 3.0 98 991.8 6.0 W 7.6 0.0 0.0
01:28 3.4 3.1 98 991.8 7.6 W 7.6 0.0 0.0
01:29 3.4 3.1 98 991.8 6.0 W 7.6 0.0 0.0
01:30 3.4 3.1 98 991.8 6.0 W 7.6 0.0 0.0
01:31 3.5 3.2 98 991.9 5.4 W 7.6 0.0 0.0
01:32 3.6 3.3 98 992.1 4.5 W 7.6 0.0 0.0
01:33 3.6 3.3 98 991.8 5.4 W 7.6 0.0 0.0
01:34 3.7 3.4 98 992.1 7.6 W 7.6 0.0 0.0
01:35 3.8 3.5 98 992.0 6.9 W 7.6 0.0 0.0
01:37 3.8 3.5 98 992.0 3.8 W 7.6 0.8 0.1
01:38 3.8 3.5 98 991.9 7.6 W 7.6 0.8 0.1
01:39 3.9 3.6 98 992.0 9.2 W 9.2 1.5 0.2
01:40 4.0 3.7 98 992.0 7.6 NW 9.2 2.3 0.2
01:41 4.0 3.9 99 992.0 6.0 W 9.2 2.3 0.3
01:42 4.0 3.9 99 992.0 6.0 W 9.2 3.0 0.3
01:43 4.1 4.0 99 991.9 6.9 W 9.2 3.8 0.4
01:44 4.1 4.0 99 992.1 5.4 W 9.2 3.0 0.4
01:45 4.1 4.0 99 992.0 5.4 W 9.2 2.3 0.4
01:46 4.1 4.0 99 992.0 7.6 W 9.2 2.3 0.4
01:47 4.2 4.1 99 992.0 9.8 N 9.8 0.8 0.4
01:48 4.2 4.1 99 992.0 9.2 W 9.8 0.0 0.4
01:49 4.2 4.1 99 992.1 5.4 W 9.8 0.0 0.4
01:50 4.2 4.1 99 992.1 6.0 W 9.8 0.0 0.4
01:52 4.2 4.1 99 992.1 6.0 W 9.8 0.0 0.4
01:53 4.2 4.1 99 992.1 6.0 W 9.8 0.0 0.4
01:54 4.2 4.1 99 992.1 4.5 W 9.8 0.0 0.4
01:55 4.3 4.2 99 992.0 3.8 W 9.8 0.0 0.4
01:56 4.3 4.2 99 992.1 4.5 W 9.8 0.0 0.4
01:58 4.3 4.2 99 991.9 3.8 W 9.2 0.0 0.4
01:59 4.3 4.2 99 992.0 3.1 W 7.6 0.0 0.4
02:00 4.3 4.2 99 991.9 4.5 W 6.0 0.0 0.4
02:01 4.3 4.2 99 991.9 4.5 W 6.0 0.0 0.4
02:02 4.3 4.2 99 991.9 4.5 W 6.0 0.0 0.4
02:03 4.3 4.2 99 991.9 4.5 W 6.0 0.0 0.4
02:04 4.3 4.2 99 992.0 4.5 W 4.5 0.0 0.4
02:05 4.3 4.2 99 992.0 4.5 W 4.5 0.0 0.4
02:06 4.3 4.2 99 992.0 4.5 W 4.5 0.0 0.4
02:07 4.3 4.2 99 992.0 4.5 W 4.5 0.0 0.4
02:09 4.3 4.2 99 991.9 4.5 W 4.5 0.0 0.4
02:10 4.2 3.9 98 991.9 2.2 W 4.5 0.0 0.4
02:11 4.2 3.9 98 992.1 2.2 W 4.5 0.0 0.4
02:12 4.2 4.1 99 992.0 3.1 W 4.5 0.0 0.4
02:13 4.1 3.8 98 992.1 2.2 W 4.5 0.0 0.4
02:14 4.1 3.8 98 992.2 3.8 W 4.5 0.0 0.4
02:15 4.1 3.8 98 992.2 2.2 W 4.5 0.0 0.4
02:16 4.1 3.8 98 992.2 2.2 W 4.5 0.0 0.4
02:17 4.1 3.8 98 992.0 1.6 W 4.5 0.0 0.4
02:18 4.0 3.7 98 992.0 4.5 W 4.5 0.0 0.4
02:19 4.0 3.7 98 992.1 3.1 NW 4.5 0.0 0.4
02:21 4.0 3.7 98 992.1 3.1 NW 4.5 0.0 0.4
02:22 4.0 3.7 98 992.2 2.2 NW 4.5 0.0 0.4
02:23 4.0 3.7 98 992.1 2.2 NW 4.5 0.0 0.4
02:24 3.9 3.6 98 992.1 3.1 NW 4.5 0.0 0.4
02:25 3.9 3.6 98 992.0 2.2 NW 4.5 0.0 0.4
02:26 3.9 3.6 98 992.1 3.1 NW 4.5 0.0 0.4
02:27 3.9 3.6 98 992.0 2.2 NW 4.5 0.0 0.4
02:28 3.9 3.6 98 992.0 2.2 NW 4.5 0.0 0.4
02:29 3.8 3.5 98 992.2 2.2 NW 3.1 0.0 0.4
02:30 3.8 3.5 98 992.1 2.2 NW 3.1 0.0 0.4
02:31 3.8 3.5 98 992.0 2.2 NW 3.1 0.0 0.4
02:37 3.7 3.4 98 992.3 1.6 W 3.8 0.0 0.4
02:38 3.7 3.4 98 992.2 3.1 W 3.8 0.0 0.4
02:39 3.7 3.4 98 992.2 3.1 N 3.8 0.0 0.4
02:40 3.7 3.4 98 992.3 2.2 N 3.8 1.5 0.5
02:41 3.7 3.4 98 992.2 3.1 N 3.8 1.5 0.5
02:42 3.7 3.4 98 992.2 0.7 N 3.8 1.5 0.5
02:43 3.7 3.4 98 992.3 3.1 W 3.8 1.5 0.5
02:44 3.7 3.4 98 992.2 2.2 W 3.8 1.5 0.5
02:45 3.7 3.4 98 992.2 1.6 W 3.1 0.0 0.5
02:47 3.7 3.4 98 992.2 2.2 W 3.1 0.0 0.5
02:48 3.7 3.4 98 992.2 2.2 W 3.1 0.0 0.5
02:49 3.7 3.4 98 992.3 1.6 W 3.1 0.0 0.5
02:50 3.7 3.4 98 992.3 2.2 W 3.1 0.0 0.5
02:51 3.7 3.4 98 992.4 1.6 W 3.1 0.0 0.5
02:52 3.7 3.4 98 992.2 1.6 W 3.1 0.0 0.5
02:53 3.7 3.4 98 992.2 1.6 W 3.1 0.0 0.5
02:54 3.6 3.3 98 992.2 2.2 W 2.2 0.0 0.5
02:55 3.6 3.3 98 992.4 1.6 W 2.2 0.0 0.5
02:56 3.6 3.3 98 992.2 1.6 W 2.2 0.0 0.5
02:57 3.7 3.4 98 992.2 1.6 W 2.2 0.0 0.5
02:58 3.7 3.4 98 992.3 1.6 W 2.2 0.0 0.5
02:59 3.6 3.3 98 992.3 1.6 W 2.2 0.0 0.5
03:00 3.6 3.3 98 992.4 0.7 W 2.2 0.0 0.5
03:01 3.6 3.3 98 992.5 0.7 W 2.2 0.0 0.5
03:02 3.6 3.3 98 992.3 0.7 W 2.2 0.0 0.5
03:03 3.6 3.3 98 992.5 0.7 W 2.2 0.0 0.5
03:04 3.6 3.3 98 992.3 0.7 W 1.6 0.0 0.5
03:05 3.6 3.3 98 992.4 0.7 W 1.6 0.0 0.5
03:06 3.6 3.3 98 992.3 3.1 W 3.1 0.0 0.5
03:07 3.6 3.3 98 992.3 2.2 W 3.1 0.0 0.5
03:08 3.6 3.5 99 992.3 1.6 W 3.1 0.0 0.5
03:09 3.6 3.5 99 992.4 2.2 W 3.1 0.0 0.5
03:10 3.6 3.5 99 992.4 2.2 W 3.1 0.0 0.5
03:11 3.6 3.3 98 992.4 2.2 W 3.1 0.0 0.5
03:12 3.6 3.3 98 992.3 2.2 W 3.1 0.0 0.5
03:14 3.6 3.5 99 992.4 2.2 W 3.1 0.0 0.5
03:15 3.6 3.5 99 992.4 2.2 W 3.1 0.0 0.5
03:16 3.6 3.5 99 992.3 3.1 W 3.1 0.0 0.5
03:17 3.6 3.5 99 992.4 3.1 W 3.1 0.0 0.5
03:18 3.6 3.5 99 992.4 3.8 W 3.8 0.0 0.5
03:19 3.6 3.5 99 992.4 3.8 W 3.8 0.0 0.5
03:20 3.6 3.5 99 992.3 3.1 W 3.8 0.0 0.5
03:21 3.6 3.5 99 992.4 2.2 W 3.8 0.0 0.5
03:22 3.6 3.5 99 992.5 3.8 W 3.8 0.0 0.5
03:23 3.6 3.5 99 992.6 2.2 W 3.8 0.0 0.5
03:24 3.6 3.5 99 992.6 5.4 NW 5.4 0.0 0.5
03:25 3.6 3.5 99 992.6 7.6 WSW 7.6 0.0 0.5
03:26 3.6 3.5 99 992.5 6.0 W 7.6 0.0 0.6
03:27 3.7 3.6 99 992.5 8.3 WSW 8.3 1.5 0.7
03:28 3.7 3.6 99 992.6 6.0 W 8.3 2.3 0.7
03:29 3.7 3.6 99 992.5 6.9 WSW 8.3 2.3 0.7
03:30 3.7 3.6 99 992.6 7.6 NW 8.3 3.0 0.8
03:31 3.7 3.6 99 992.6 7.6 NW 8.3 3.0 0.8
03:32 3.7 3.6 99 992.7 5.4 WSW 8.3 1.5 0.8
03:33 3.8 3.7 99 992.7 6.0 W 8.3 0.8 0.8
03:34 3.8 3.7 99 992.7 6.0 W 8.3 0.8 0.8
03:36 3.8 3.7 99 992.7 5.4 W 8.3 0.0 0.8
03:37 3.8 3.7 99 992.7 4.5 W 8.3 0.0 0.8
03:38 3.9 3.8 99 992.7 3.1 W 7.6 0.0 0.8
03:39 3.9 3.8 99 992.7 3.8 W 7.6 0.0 0.8
03:40 3.9 3.8 99 992.7 5.4 W 7.6 0.0 0.8
03:41 3.9 3.8 99 992.7 4.5 W 7.6 0.0 0.8
03:42 3.9 3.8 99 992.7 4.5 W 6.9 0.0 0.8
03:43 3.9 3.8 99 992.7 4.5 W 6.9 0.0 0.8
03:44 3.9 3.8 99 992.6 4.5 W 6.9 0.0 0.8
03:45 4.0 3.9 99 992.8 6.0 W 6.0 0.0 0.8
03:46 4.0 3.9 99 992.8 3.8 W 6.0 0.0 0.8
03:47 4.0 3.9 99 992.8 3.8 W 6.0 0.0 0.8
03:48 4.0 3.9 99 992.7 3.8 W 6.0 0.0 0.8
03:49 4.0 3.9 99 992.8 3.8 W 6.0 0.0 0.8
03:50 4.0 3.9 99 992.9 4.5 NW 6.0 0.0 0.8
03:51 4.0 3.9 99 992.9 4.5 NW 6.0 0.0 0.8
03:52 4.0 3.9 99 992.9 6.9 W 6.9 0.0 0.8
03:53 4.0 3.9 99 992.9 4.5 W 6.9 0.0 0.8
03:54 4.0 3.9 99 992.9 3.8 W 6.9 0.0 0.8
03:55 4.0 3.9 99 992.9 5.4 WSW 6.9 0.0 0.8
03:57 4.0 3.9 99 992.8 5.4 W 6.9 0.0 0.8
03:58 4.0 3.9 99 992.9 5.4 W 6.9 0.0 0.8
03:59 4.0 3.9 99 992.9 4.5 W 6.9 0.0 0.8
04:00 4.0 3.9 99 992.9 4.5 W 6.9 0.0 0.8
04:01 4.0 3.9 99 993.1 4.5 W 6.9 0.0 0.8
04:02 4.0 3.9 99 993.0 4.5 W 6.9 0.0 0.8
04:03 4.0 3.9 99 993.1 4.5 W 5.4 0.0 0.8
04:04 4.0 3.9 99 993.0 4.5 W 5.4 0.0 0.8
04:05 4.0 3.9 99 993.0 4.5 W 5.4 0.0 0.8
04:06 4.1 4.0 99 993.0 5.4 W 5.4 0.0 0.8
04:07 4.1 4.0 99 993.0 4.5 NW 5.4 0.0 0.8
04:09 4.1 4.0 99 993.1 5.4 W 5.4 0.0 0.8
04:10 4.2 4.1 99 993.0 5.4 W 5.4 0.0 0.8
04:11 4.2 4.1 99 993.2 5.4 W 5.4 0.0 0.8
04:12 4.2 4.1 99 993.1 4.5 W 5.4 0.0 0.8
04:13 4.3 4.2 99 993.1 4.5 W 5.4 0.0 0.8
04:14 4.3 4.2 99 993.1 6.0 W 6.0 0.0 0.8
04:15 4.3 4.2 99 993.1 4.5 W 6.0 0.0 0.8
04:17 4.4 4.3 99 993.2 5.4 W 6.0 0.0 0.8
04:18 4.4 4.3 99 993.2 5.4 W 6.0 0.0 0.8
04:19 4.4 4.3 99 993.0 7.6 WSW 7.6 0.0 0.8
04:20 4.4 4.3 99 993.1 6.9 W 7.6 0.0 0.8
04:21 4.4 4.3 99 993.2 5.4 W 7.6 0.0 0.8
04:22 4.5 4.4 99 993.0 4.5 WSW 7.6 0.0 0.8
04:23 4.5 4.4 99 993.2 4.5 WSW 7.6 0.0 0.8
04:25 4.5 4.4 99 993.1 5.4 W 7.6 0.0 0.8
04:26 4.5 4.4 99 993.2 5.4 WSW 7.6 0.0 0.8
04:28 4.5 4.4 99 993.2 6.9 WSW 7.6 0.0 0.8
04:29 4.5 4.4 99 993.4 5.4 S 7.6 0.0 0.8
04:30 4.5 4.4 99 993.3 9.2 S 9.2 0.0 0.8
04:31 4.6 4.5 99 993.4 6.0 WSW 9.2 0.0 0.8
04:32 4.6 4.5 99 993.4 6.9 N 9.2 0.0 0.8
04:33 4.6 4.5 99 993.4 6.9 N 9.2 0.0 0.8
04:35 4.6 4.5 99 993.6 6.0 WSW 9.2 0.8 0.8
04:36 4.6 4.5 99 993.6 6.0 WSW 9.2 0.8 0.8
04:37 4.6 4.5 99 993.5 5.4 WSW 9.2 0.8 0.8
04:38 4.7 4.6 99 993.6 8.3 WSW 9.2 0.8 0.8
04:39 4.7 4.6 99 993.7 10.7 WSW 10.7 1.5 0.9
04:40 4.7 4.6 99 993.5 9.8 W 10.7 2.3 1.2
04:41 4.7 4.6 99 993.5 6.0 W 10.7 4.5 1.3
04:42 4.7 4.6 99 993.6 8.3 W 10.7 6.0 1.3
04:43 4.6 4.5 99 993.6 6.9 W 10.7 6.0 1.3
04:44 4.6 4.5 99 993.6 5.4 W 10.7 4.5 1.3
04:45 4.6 4.5 99 993.4 6.0 W 10.7 3.8 1.3
04:46 4.6 4.5 99 993.6 5.4 W 10.7 1.5 1.3
04:47 4.6 4.5 99 993.7 4.5 W 10.7 0.0 1.3
04:48 4.6 4.5 99 993.6 7.6 NW 10.7 0.0 1.3
04:49 4.6 4.5 99 993.5 5.4 NW 9.8 0.0 1.3
04:50 4.6 4.5 99 993.7 6.9 W 9.2 0.0 1.4
04:51 4.6 4.5 99 993.7 4.5 NW 9.2 0.8 1.4
04:52 4.6 4.5 99 993.6 6.0 W 9.2 0.8 1.4
04:54 4.7 4.6 99 993.5 5.4 W 9.2 0.8 1.4
04:55 4.6 4.5 99 993.6 7.6 S 9.2 0.8 1.4
04:56 4.6 4.5 99 993.6 7.6 W 9.2 0.0 1.4
04:57 4.7 4.6 99 993.7 6.0 WSW 9.2 0.0 1.4
04:58 4.7 4.6 99 993.6 5.4 W 9.2 0.0 1.4
04:59 4.7 4.6 99 993.7 5.4 W 9.2 0.0 1.4
05:00 4.7 4.6 99 993.7 3.1 W 7.6 0.0 1.4
05:01 4.7 4.6 99 993.7 3.1 W 7.6 0.0 1.4
05:02 4.7 4.6 99 993.7 3.1 W 7.6 0.0 1.4
05:03 4.7 4.6 99 993.7 3.1 W 7.6 0.0 1.4
05:04 4.7 4.6 99 993.8 3.1 W 7.6 0.0 1.4
05:05 4.6 4.5 99 993.7 8.3 W 8.3 0.0 1.5
05:06 4.6 4.5 99 993.8 7.6 W 8.3 1.5 1.5
05:07 4.6 4.5 99 994.0 5.4 W 8.3 1.5 1.5
05:09 4.6 4.5 99 994.0 4.5 W 8.3 1.5 1.5
05:10 4.6 4.5 99 993.8 7.6 W 8.3 1.5 1.5
05:11 4.6 4.5 99 994.0 4.5 W 8.3 0.0 1.5
05:12 4.6 4.5 99 993.9 5.4 W 8.3 0.0 1.5
05:13 4.6 4.5 99 993.8 6.9 W 8.3 0.0 1.5
05:14 4.6 4.5 99 993.8 6.0 S 8.3 0.0 1.5
05:15 4.6 4.5 99 993.9 4.5 WSW 8.3 0.0 1.5
05:16 4.5 4.4 99 994.0 4.5 NW 7.6 0.0 1.5
05:17 4.5 4.4 99 994.1 3.1 NW 7.6 0.0 1.5
05:18 4.5 4.4 99 994.1 4.5 W 7.6 0.0 1.5
05:19 4.5 4.4 99 994.1 4.5 W 7.6 0.0 1.5
05:20 4.5 4.4 99 994.1 6.0 W 6.9 0.0 1.5
05:21 4.5 4.4 99 994.1 5.4 W 6.9 0.0 1.5
05:22 4.4 4.3 99 994.0 6.9 WSW 6.9 0.0 1.5
05:23 4.4 4.3 99 994.1 6.0 W 6.9 0.0 1.5
05:24 4.4 4.3 99 994.0 6.0 W 6.9 0.0 1.5
05:25 4.4 4.3 99 994.2 3.8 NW 6.9 0.0 1.5
05:26 4.4 4.3 99 994.2 6.0 W 6.9 0.0 1.5
05:27 4.4 4.3 99 994.2 3.1 W 6.9 0.0 1.5
05:28 4.4 4.3 99 994.1 4.5 W 6.9 0.0 1.5
05:30 4.4 4.3 99 994.1 3.1 W 6.9 0.0 1.5
05:31 4.4 4.3 99 994.2 5.4 WSW 6.9 0.0 1.5
05:32 4.4 4.3 99 994.2 3.1 W 6.9 0.0 1.5
05:33 4.3 4.2 99 994.2 3.1 W 6.0 0.0 1.5
05:34 4.4 4.3 99 994.2 3.8 W 6.0 0.0 1.5
05:35 4.4 4.3 99 994.3 3.8 W 6.0 0.0 1.5
05:36 4.3 4.2 99 994.1 3.8 W 6.0 0.0 1.5
05:37 4.3 4.2 99 994.2 3.1 W 5.4 0.0 1.5
05:38 4.3 4.2 99 994.2 3.1 W 5.4 0.0 1.5
05:39 4.3 4.2 99 994.2 3.8 W 5.4 0.0 1.5
05:40 4.3 4.2 99 994.2 3.1 WSW 5.4 0.0 1.5
05:41 4.2 4.1 99 994.2 3.8 WSW 5.4 0.0 1.5
05:42 4.2 4.1 99 994.2 3.1 WSW 5.4 0.0 1.5
05:43 4.2 4.1 99 994.2 3.8 WSW 5.4 0.0 1.5
05:44 4.2 4.1 99 994.2 3.1 WSW 5.4 0.0 1.5
05:45 4.2 4.1 99 994.2 3.1 WSW 5.4 0.0 1.5
05:46 4.2 4.1 99 994.1 3.8 WSW 3.8 0.0 1.5
05:47 4.2 4.1 99 994.2 2.2 WSW 3.8 0.0 1.5
05:48 4.1 4.0 99 994.2 3.1 WSW 3.8 0.0 1.5
05:49 4.1 4.0 99 994.3 2.2 WSW 3.8 0.0 1.5
05:50 4.1 4.0 99 994.2 2.2 WSW 3.8 0.0 1.5
05:52 4.1 4.0 99 994.2 3.8 WSW 3.8 0.0 1.5
05:53 4.1 4.0 99 994.1 3.1 WSW 3.8 0.0 1.5
05:54 4.1 4.0 99 994.1 3.1 WSW 3.8 0.0 1.5
05:55 4.1 4.0 99 994.2 3.1 W 3.8 0.0 1.5
05:56 4.0 3.9 99 994.2 2.2 W 4.5 0.0 1.5
05:57 4.0 3.9 99 994.2 3.1 W 4.5 0.0 1.5
05:58 4.0 3.9 99 994.2 4.5 WSW 4.5 0.0 1.5
05:59 4.0 3.9 99 994.2 3.8 WSW 4.5 0.0 1.5
06:00 4.0 3.9 99 994.2 3.1 WSW 4.5 0.0 1.5
06:01 4.0 3.9 99 994.2 3.1 WSW 4.5 0.0 1.5
06:02 4.0 3.9 99 994.2 3.1 WSW 4.5 0.0 1.5
06:03 4.0 3.9 99 994.3 3.1 WSW 4.5 0.0 1.5
06:04 4.0 3.9 99 994.2 3.1 WSW 4.5 0.0 1.5
06:05 4.0 3.9 99 994.2 3.8 WSW 4.5 0.0 1.5
06:06 4.0 3.9 99 994.4 3.1 WSW 4.5 0.0 1.5
06:07 4.0 3.9 99 994.5 4.5 W 4.5 0.0 1.5
06:09 3.9 3.8 99 994.4 4.5 W 6.0 0.0 1.5
06:10 3.9 3.8 99 994.5 6.0 W 6.0 0.0 1.5
06:12 3.9 3.8 99 994.3 4.5 W 6.0 0.0 1.5
06:13 3.9 3.8 99 994.6 5.4 W 6.0 0.0 1.5
06:14 3.8 3.7 99 994.5 5.4 W 6.0 0.0 1.5
06:15 3.9 3.8 99 994.3 5.4 W 6.0 0.0 1.5
06:16 3.9 3.8 99 994.5 4.5 W 6.0 0.0 1.5
06:17 3.9 3.8 99 994.3 5.4 W 6.0 0.0 1.5
06:18 3.8 3.7 99 994.5 4.5 W 6.0 0.0 1.5
06:19 3.8 3.7 99 994.7 5.4 W 6.0 0.0 1.5
06:20 3.8 3.7 99 994.6 5.4 W 6.0 0.0 1.5
06:21 3.8 3.7 99 994.5 3.8 W 5.4 0.0 1.5
06:22 3.8 3.7 99 994.6 4.5 W 5.4 0.0 1.5
06:23 3.7 3.6 99 994.5 5.4 W 5.4 0.0 1.5
06:24 3.7 3.6 99 994.6 4.5 W 5.4 0.0 1.5
06:25 3.7 3.6 99 994.6 5.4 WSW 5.4 0.0 1.5
06:26 3.7 3.6 99 994.6 4.5 WSW 5.4 0.0 1.5
06:27 3.7 3.6 99 994.5 6.9 WSW 6.9 0.0 1.5
06:28 3.7 3.6 99 994.6 5.4 WSW 6.9 0.0 1.5
06:29 3.6 3.5 99 994.6 4.5 W 6.9 0.0 1.5
06:30 3.6 3.5 99 994.7 6.9 WSW 6.9 0.0 1.5
06:31 3.6 3.5 99 994.7 5.4 W 6.9 0.0 1.5
06:32 3.6 3.5 99 994.9 4.5 W 6.9 0.0 1.5
06:33 3.5 3.4 99 994.7 3.8 W 6.9 0.0 1.5
06:34 3.5 3.4 99 994.7 5.4 W 6.9 0.0 1.5
06:35 3.5 3.2 98 994.8 5.4 W 6.9 0.0 1.5
06:36 3.5 3.4 99 994.7 6.0 W 6.9 0.0 1.5
06:37 3.5 3.2 98 994.7 6.0 W 6.9 0.0 1.5
06:38 3.5 3.2 98 994.8 6.9 WSW 6.9 0.0 1.5
06:39 3.4 3.1 98 994.7 5.4 W 6.9 0.0 1.5
06:40 3.4 3.1 98 994.9 4.5 W 6.9 0.0 1.5
06:41 3.4 3.1 98 994.8 3.8 W 6.9 0.0 1.5
06:42 3.4 3.1 98 994.8 3.1 W 6.9 0.0 1.5
06:43 3.4 3.1 98 994.8 4.5 W 6.9 0.0 1.5
06:44 3.4 3.1 98 994.8 5.4 W 6.9 0.0 1.5
06:45 3.4 3.1 98 995.0 4.5 W 6.9 0.0 1.5
06:46 3.4 3.1 98 994.8 4.5 W 6.9 0.0 1.5
06:47 3.3 3.0 98 994.8 3.8 W 6.9 0.0 1.5
06:48 3.3 3.0 98 994.9 4.5 W 5.4 0.0 1.5
06:49 3.3 3.0 98 994.9 3.8 W 5.4 0.0 1.5
06:50 3.3 3.0 98 994.8 3.1 W 5.4 0.0 1.5
06:51 3.3 3.0 98 995.0 3.1 W 5.4 0.0 1.5
06:52 3.3 3.0 98 994.9 3.8 W 5.4 0.0 1.5
06:53 3.3 3.0 98 994.8 4.5 W 5.4 0.0 1.5
06:54 3.3 3.0 98 994.9 4.5 W 5.4 0.0 1.5
06:55 3.2 2.9 98 994.8 3.8 W 4.5 0.0 1.5
06:56 3.2 2.9 98 994.9 3.8 W 4.5 0.0 1.5
06:57 3.2 2.9 98 994.9 3.8 W 4.5 0.0 1.5
06:58 3.2 2.9 98 994.8 3.8 W 4.5 0.0 1.5
06:59 3.2 2.9 98 994.8 4.5 W 4.5 0.0 1.5
07:00 3.2 2.9 98 995.1 4.5 W 4.5 0.0 1.5
07:01 3.2 2.9 98 994.9 4.5 W 4.5 0.0 1.5
07:02 3.2 2.9 98 995.0 4.5 W 4.5 0.0 1.5
07:03 3.2 2.9 98 995.0 4.5 W 4.5 0.0 1.5
07:04 3.2 2.9 98 994.9 4.5 W 4.5 0.0 1.5
07:05 3.1 2.8 98 995.1 4.5 W 4.5 0.0 1.5
07:06 3.1 2.8 98 995.1 3.8 W 4.5 0.0 1.5
07:07 3.1 2.8 98 995.0 3.8 W 4.5 0.0 1.5
07:08 3.1 2.8 98 995.1 5.4 W 5.4 0.0 1.5
07:09 3.1 2.8 98 995.2 4.5 W 5.4 0.0 1.5
07:10 3.1 2.8 98 995.3 3.8 W 5.4 0.0 1.5
07:11 3.1 2.8 98 995.3 4.5 W 5.4 0.0 1.5
07:12 3.1 2.8 98 995.4 4.5 W 5.4 0.0 1.5
07:13 3.2 2.9 98 995.3 8.3 WSW 8.3 0.0 1.5
07:14 3.2 2.9 98 995.3 12.1 W 12.1 0.0 1.5
07:15 3.2 2.9 98 995.3 6.0 NW 12.1 0.0 1.5
07:16 3.2 2.9 98 995.2 7.6 NW 12.1 0.0 1.5
07:17 3.3 3.0 98 995.4 8.3 W 12.1 0.0 1.5
07:18 3.3 3.0 98 995.2 5.4 W 12.1 0.0 1.5
07:19 3.4 3.1 98 995.3 5.4 W 12.1 0.0 1.5
07:20 3.4 3.1 98 995.3 6.9 W 12.1 0.0 1.5
07:21 3.4 3.1 98 995.3 6.0 WSW 12.1 0.0 1.5
07:22 3.5 3.2 98 995.2 4.5 W 12.1 0.0 1.5
07:23 3.5 3.2 98 995.4 7.6 W 12.1 0.0 1.5
07:24 3.5 3.2 98 995.2 6.9 W 12.1 0.0 1.5
07:25 3.6 3.3 98 995.3 6.9 WSW 8.3 0.0 1.5
07:26 3.6 3.3 98 995.4 8.3 WSW 8.3 0.0 1.5
07:27 3.6 3.3 98 995.6 8.3 W 8.3 0.0 1.5
07:28 3.6 3.3 98 995.6 11.4 WSW 11.4 0.0 1.5
07:29 3.7 3.4 98 995.5 10.7 NW 11.4 0.0 1.5
07:30 3.8 3.5 98 995.6 9.2 W 12.1 0.0 1.5
07:32 3.8 3.5 98 995.5 11.4 N 12.1 0.0 1.5
07:33 3.8 3.5 98 995.5 11.4 N 12.1 0.0 1.5
07:34 3.9 3.6 98 995.7 9.8 W 12.1 0.0 1.5
07:35 4.0 3.7 98 995.6 11.4 WSW 12.1 0.0 1.5
07:36 4.0 3.9 99 995.8 13.0 WSW 13.0 0.0 1.5
07:37 4.0 3.9 99 995.6 8.3 WSW 13.0 0.0 1.5
07:38 4.0 3.9 99 995.7 9.8 WSW 13.0 0.0 1.5
07:39 4.1 3.8 98 995.7 10.7 W 13.0 0.0 1.5
07:40 4.1 4.0 99 995.6 6.9 W 13.0 0.0 1.5
07:41 4.1 3.8 98 995.7 6.0 W 13.0 0.0 1.5
07:42 4.1 3.8 98 995.7 7.6 WSW 13.0 0.0 1.5
07:43 4.1 4.0 99 995.7 6.9 WSW 13.0 0.0 1.5
07:44 4.2 3.9 98 995.7 6.9 W 13.0 0.0 1.5
07:45 4.2 3.9 98 995.7 4.5 W 13.0 0.0 1.5
07:46 4.2 3.9 98 995.6 6.0 N 13.0 0.0 1.5
07:47 4.2 3.9 98 995.7 5.4 WSW 10.7 0.0 1.5
07:48 4.2 3.9 98 995.7 5.4 WSW 10.7 0.0 1.5
07:49 4.2 3.9 98 995.7 4.5 WSW 10.7 0.0 1.5
07:50 4.2 3.9 98 995.8 5.4 WSW 7.6 0.0 1.5
07:51 4.2 3.9 98 995.7 5.4 N 7.6 0.0 1.5
07:52 4.2 3.9 98 995.8 4.5 N 6.9 0.0 1.5
07:53 4.2 3.9 98 995.8 4.5 N 6.9 0.0 1.5
07:54 4.2 3.9 98 995.9 6.0 S 6.9 0.0 1.5
07:55 4.2 3.9 98 995.7 6.0 S 6.9 0.0 1.5
07:56 4.1 3.8 98 995.7 3.8 N 6.9 0.0 1.5
07:57 4.1 3.8 98 995.8 5.4 N 6.9 0.0 1.5
07:58 4.1 3.8 98 995.8 4.5 N 6.9 0.0 1.5
07:59 4.2 3.9 98 995.9 5.4 WSW 6.0 0.0 1.5
08:00 4.1 3.8 98 995.8 4.5 WSW 6.0 0.0 1.5
08:01 4.1 3.8 98 995.8 4.5 WSW 6.0 0.0 1.5
08:02 4.1 3.8 98 996.0 5.4 N 6.0 0.8 1.6
08:03 4.0 3.7 98 995.7 5.4 N 6.0 0.8 1.6
08:04 4.0 3.7 98 995.8 3.8 N 6.9 0.8 1.6
08:05 4.0 3.7 98 995.8 3.8 S 6.9 0.8 1.6
08:06 4.0 3.7 98 996.0 3.8 S 6.9 0.8 1.6
08:07 4.0 3.7 98 995.8 3.1 N 6.9 0.0 1.6
08:08 3.9 3.6 98 995.9 3.8 N 6.9 0.0 1.6
08:09 3.9 3.6 98 995.9 6.0 N 6.9 0.0 1.6
08:10 3.9 3.6 98 995.9 6.0 N 6.9 0.0 1.6
08:12 3.8 3.5 98 995.9 6.0 N 6.9 0.0 1.6
08:13 3.8 3.5 98 996.1 3.8 N 6.9 0.0 1.6
08:15 3.8 3.5 98 996.0 6.0 N 6.0 0.0 1.6
08:16 3.8 3.5 98 996.0 6.9 N 6.9 0.0 1.6
08:17 3.7 3.4 98 996.0 5.4 N 6.9 0.0 1.6
08:18 3.7 3.4 98 996.0 6.0 S 6.9 0.0 1.6
08:19 3.7 3.4 98 996.0 7.6 NW 7.6 0.0 1.6
08:20 3.7 3.4 98 996.1 4.5 W 7.6 0.0 1.6
08:21 3.7 3.4 98 996.1 4.5 N 7.6 0.0 1.6
08:22 3.7 3.4 98 996.0 6.0 N 7.6 0.0 1.6
08:23 3.8 3.5 98 996.2 5.4 S 7.6 0.0 1.6
08:24 3.8 3.5 98 996.2 6.0 W 7.6 0.0 1.6
08:25 3.8 3.5 98 996.0 5.4 W 7.6 0.0 1.6
08:26 3.8 3.5 98 996.2 6.9 W 7.6 0.0 1.6
08:27 3.8 3.5 98 996.2 5.4 N 7.6 0.0 1.6
08:28 3.9 3.6 98 996.2 6.0 N 7.6 0.0 1.6
08:29 3.9 3.6 98 996.3 6.9 N 6.9 0.0 1.6
08:30 3.9 3.6 98 996.1 6.9 W 6.9 0.0 1.6
08:31 4.0 3.7 98 996.2 15.2 S 15.2 0.0 1.6
08:32 4.0 3.7 98 996.2 13.0 S 15.2 0.0 1.6
08:33 4.1 3.8 98 996.3 12.1 NNW 15.2 0.0 1.6
08:34 4.2 3.9 98 996.4 15.9 NW 15.9 0.0 1.6
08:35 4.3 4.0 98 996.5 13.0 NW 15.9 0.0 1.6
08:37 4.4 4.1 98 996.6 21.3 WNW 21.3 0.0 1.6
08:38 4.4 4.1 98 996.6 20.6 NW 21.3 0.0 1.6
08:39 4.5 4.2 98 996.4 15.9 SW 21.3 0.0 1.6
08:40 4.6 4.3 98 996.5 13.0 SW 21.3 0.0 1.6
08:41 4.6 4.3 98 996.5 13.6 SW 21.3 0.0 1.6
08:42 4.6 4.3 98 996.5 14.5 SW 21.3 0.0 1.6
08:43 4.6 4.3 98 996.5 15.9 W 21.3 0.0 1.6
08:44 4.6 4.3 98 996.4 10.7 W 21.3 0.0 1.6
08:45 4.6 4.3 98 996.6 14.5 W 21.3 0.0 1.6
08:46 4.6 4.3 98 996.5 13.0 W 21.3 0.0 1.6
08:47 4.6 4.3 98 996.4 8.3 W 21.3 0.0 1.6
08:48 4.6 4.3 98 996.3 6.0 W 20.6 0.0 1.6
08:49 4.5 4.1 97 996.4 6.0 W 15.9 0.0 1.6
08:50 4.5 4.1 97 996.5 6.0 NW 15.9 0.0 1.6
08:51 4.5 4.1 97 996.4 6.0 NW 15.9 0.0 1.6
08:52 4.4 4.0 97 996.3 7.6 NW 15.9 0.0 1.6
08:53 4.4 4.0 97 996.3 4.5 NW 15.2 0.0 1.6
08:54 4.4 4.0 97 996.4 5.4 NW 14.5 0.0 1.6
08:55 4.4 4.0 97 996.4 3.8 W 13.0 0.0 1.6
08:56 4.4 4.0 97 996.3 4.5 NW 8.3 0.0 1.6
08:57 4.4 4.0 97 996.5 7.6 NW 7.6 0.0 1.6
08:58 4.4 4.0 97 996.4 5.4 SW 7.6 0.0 1.6
09:00 4.4 4.0 97 996.3 6.9 W 7.6 0.0 1.6
09:01 4.4 4.0 97 996.2 6.9 W 7.6 0.0 1.6
09:02 4.4 4.0 97 996.2 6.9 W 7.6 0.0 1.6
09:03 4.4 4.0 97 996.5 6.9 W 7.6 0.0 1.6
09:05 4.4 4.0 97 996.6 6.9 W 7.6 0.0 1.6
09:06 4.6 4.2 97 996.5 5.4 SW 7.6 0.0 1.6
09:07 4.6 4.3 98 996.5 6.0 SW 7.6 0.0 1.6
09:08 4.6 4.2 97 996.5 6.0 SW 6.9 0.0 1.6
09:09 4.7 4.3 97 996.5 6.9 SW 6.9 0.0 1.6
09:10 4.7 4.4 98 996.4 6.0 SW 6.9 0.0 1.6
09:12 4.8 4.5 98 996.4 7.6 SW 7.6 0.0 1.6
09:13 4.8 4.5 98 996.5 7.6 S 7.6 0.0 1.6
09:14 4.8 4.5 98 996.4 9.8 NE 9.8 0.0 1.6
09:15 4.9 4.6 98 996.4 6.9 SW 9.8 0.0 1.6
09:16 4.9 4.6 98 996.3 10.7 SW 10.7 0.0 1.6
09:17 5.0 4.7 98 996.3 8.3 SW 10.7 0.0 1.6
09:18 5.0 4.7 98 996.4 9.8 W 10.7 0.0 1.6
09:19 5.1 4.8 98 996.4 9.2 SW 10.7 0.0 1.6
09:20 5.1 4.8 98 996.4 7.6 S 10.7 0.0 1.6
09:21 5.2 4.9 98 996.2 6.9 SW 10.7 0.0 1.6
09:22 5.2 4.9 98 996.4 8.3 SW 10.7 0.0 1.6
09:23 5.3 5.0 98 996.4 7.6 N 10.7 0.0 1.6
09:24 5.3 5.0 98 996.5 9.2 SW 10.7 0.0 1.6
09:25 5.4 5.1 98 996.4 7.6 S 10.7 0.0 1.6
09:26 5.4 5.1 98 996.4 7.6 S 9.8 0.0 1.6
09:27 5.5 5.2 98 996.4 11.4 SW 11.4 0.0 1.6
09:28 5.5 5.2 98 996.4 13.0 SW 13.0 0.0 1.6
09:29 5.6 5.3 98 996.4 11.4 S 13.0 0.0 1.6
09:30 5.6 5.3 98 996.5 10.7 SW 13.0 0.0 1.6
09:31 5.6 5.3 98 996.4 8.3 SW 13.0 0.0 1.6
09:32 5.7 5.4 98 996.5 9.2 SW 13.0 0.0 1.6
09:33 5.8 5.5 98 996.4 7.6 SW 13.0 0.0 1.6
09:34 5.8 5.5 98 996.6 9.8 WNW 13.0 0.0 1.6
09:36 5.9 5.6 98 996.6 7.6 SW 13.0 0.0 1.6
09:37 5.9 5.6 98 996.6 10.7 S 13.0 0.0 1.6
09:38 5.9 5.6 98 996.5 9.8 SW 13.0 0.0 1.6
09:39 6.1 5.8 98 996.5 12.1 SW 13.0 0.0 1.6
09:40 6.0 5.7 98 996.5 11.4 SW 12.1 0.0 1.6
09:41 6.1 5.8 98 996.5 9.8 SW 12.1 0.0 1.6
09:42 6.1 5.8 98 996.5 9.8 SW 12.1 0.0 1.6
09:43 6.2 5.8 97 996.5 10.7 SW 12.1 0.0 1.6
09:44 6.2 5.8 97 996.5 10.7 S 12.1 0.0 1.6
09:45 6.2 5.8 97 996.5 9.2 S 12.1 0.0 1.6
09:46 6.3 5.9 97 996.5 11.4 S 12.1 0.0 1.6
09:47 6.3 5.9 97 996.5 12.1 SW 12.1 0.0 1.6
09:48 6.3 5.9 97 996.5 10.7 SW 12.1 0.0 1.6
09:49 6.4 6.0 97 996.5 11.4 SW 12.1 0.0 1.6
09:50 6.4 6.0 97 996.6 11.4 SW 12.1 0.0 1.6
09:51 6.4 6.0 97 996.4 9.8 NW 12.1 0.0 1.6
09:52 6.4 6.0 97 996.5 9.8 SW 12.1 0.0 1.6
09:53 6.5 6.1 97 996.5 11.4 N 12.1 0.0 1.6
09:54 6.5 6.1 97 996.7 11.4 S 12.1 0.0 1.6
09:55 6.6 6.2 97 996.6 13.0 SW 13.0 0.0 1.6
09:56 6.6 6.0 96 996.6 13.6 NNW 13.6 0.0 1.6
09:57 6.5 5.9 96 996.5 9.8 SW 13.6 0.0 1.6
09:58 6.5 5.9 96 996.6 14.5 SW 14.5 0.0 1.6
09:59 6.5 5.9 96 996.4 13.6 SW 14.5 0.0 1.6
10:00 6.5 5.9 96 996.4 13.6 SW 14.5 0.0 1.6
10:01 6.5 5.6 94 996.7 14.5 SW 14.5 0.0 1.6
10:02 6.5 5.6 94 996.5 13.0 SW 14.5 0.0 1.6
10:03 6.6 5.7 94 996.7 13.0 W 14.5 0.0 1.6
10:04 6.6 5.7 94 996.7 14.5 WNW 14.5 0.0 1.6
10:05 6.6 5.7 94 996.6 15.9 SW 15.9 0.0 1.6
10:07 6.7 5.8 94 996.6 16.8 SW 17.4 0.0 1.6
10:08 6.6 5.6 93 996.6 15.2 SW 17.4 0.0 1.6
10:09 6.6 5.6 93 996.8 15.9 SE 17.4 0.0 1.6
10:10 6.6 5.6 93 996.8 16.8 SW 17.4 0.0 1.6
10:12 6.5 5.3 92 996.9 13.6 SW 17.4 0.0 1.6
10:13 6.5 5.3 92 996.9 13.0 SW 17.4 0.0 1.6
10:14 6.4 5.2 92 996.8 10.7 W 17.4 0.0 1.6
10:15 6.4 5.2 92 996.8 11.4 SW 17.4 0.0 1.6
10:17 6.3 4.9 91 996.8 13.0 SW 16.8 0.0 1.6
10:18 6.2 4.8 91 996.9 7.6 SW 16.8 0.0 1.6
10:19 6.3 4.9 91 996.8 12.1 S 16.8 0.0 1.6
10:20 6.3 4.9 91 996.7 8.3 W 16.8 0.0 1.6
10:21 6.4 5.0 91 996.9 10.7 SW 15.2 0.0 1.6
10:22 6.5 5.1 91 996.7 11.4 SW 13.6 0.0 1.6
10:23 6.6 5.2 91 996.9 15.2 S 15.2 0.0 1.6
10:24 6.7 5.2 90 996.9 15.2 SW 15.2 0.0 1.6
10:25 6.7 5.2 90 996.9 14.5 SW 15.2 0.0 1.6
10:26 6.8 5.3 90 997.1 11.4 SW 15.2 0.0 1.6
10:27 7.0 5.5 90 997.1 12.1 SW 15.2 0.0 1.6
10:28 7.0 5.5 90 996.9 10.7 SW 15.2 0.0 1.6
10:29 7.1 5.6 90 997.0 10.7 SW 15.2 0.0 1.6
10:30 7.2 5.7 90 997.0 9.8 SW 15.2 0.0 1.6
10:31 7.3 5.8 90 997.1 12.1 S 15.2 0.0 1.6
10:32 7.4 5.9 90 996.9 12.1 SW 15.2 0.0 1.6
10:33 7.5 5.8 89 996.9 16.8 S 16.8 0.0 1.6
10:34 7.6 5.9 89 997.1 12.1 S 16.8 0.0 1.6
10:35 7.6 5.9 89 996.9 13.0 WNW 16.8 0.0 1.6
10:36 7.7 6.0 89 997.0 13.0 NW 16.8 0.0 1.6
10:37 7.9 6.2 89 997.0 16.8 WNW 17.4 0.0 1.6
10:38 7.9 6.0 88 996.9 13.6 W 17.4 0.0 1.6
10:40 8.0 6.1 88 996.9 15.2 SW 17.4 0.0 1.6
10:41 8.1 6.2 88 997.0 17.4 WNW 17.4 0.0 1.6
10:42 8.2 6.3 88 997.1 14.5 SW 17.4 0.0 1.6
10:43 8.2 6.2 87 997.0 15.2 SW 21.3 0.0 1.6
10:44 8.3 6.3 87 997.0 14.5 SW 21.3 0.0 1.6
10:45 8.3 6.3 87 997.1 13.6 SW 21.3 0.0 1.6
10:46 8.3 6.3 87 997.1 15.9 SW 21.3 0.0 1.6
10:47 8.3 6.1 86 997.0 13.6 SW 21.3 0.0 1.6
10:48 8.3 6.1 86 997.0 12.1 SW 21.3 0.0 1.6
10:49 8.4 6.2 86 996.9 12.1 SW 21.3 0.0 1.6
10:50 8.4 6.2 86 996.9 11.4 SW 21.3 0.0 1.6
10:51 8.5 6.3 86 997.0 13.0 S 21.3 0.0 1.6
10:52 8.5 6.3 86 997.2 15.2 SW 21.3 0.0 1.6
10:53 8.6 6.4 86 997.0 9.2 SW 15.9 0.0 1.6
10:54 8.6 6.4 86 997.0 9.8 S 15.9 0.0 1.6
10:55 8.6 6.6 87 997.2 13.0 SW 15.9 0.0 1.6
10:56 8.6 6.4 86 997.1 15.9 S 15.9 0.0 1.6
10:57 8.6 6.4 86 997.0 18.3 SW 18.3 0.0 1.6
10:59 8.5 6.1 85 997.2 19.0 NW 19.0 0.0 1.6
11:00 8.5 6.1 85 997.1 19.0 NW 19.0 0.0 1.6
11:01 8.6 6.2 85 997.1 13.6 SW 19.0 0.0 1.6
11:02 8.6 6.2 85 997.0 15.9 SW 19.0 0.0 1.6
11:03 8.7 6.1 84 997.1 17.4 SW 19.0 0.0 1.6
11:04 8.7 6.1 84 997.1 13.6 W 19.0 0.0 1.6
11:05 8.8 6.2 84 997.2 13.0 S 19.0 0.0 1.6
11:06 8.8 6.2 84 997.1 17.4 S 19.0 0.0 1.6
11:07 8.8 6.1 83 997.1 10.7 SW 19.0 0.0 1.6
11:08 8.8 6.1 83 997.2 13.0 S 19.0 0.0 1.6
11:09 8.8 6.1 83 997.2 13.6 S 19.0 0.0 1.6
11:10 8.8 5.9 82 997.2 19.0 SW 19.0 0.0 1.6
11:12 8.7 5.8 82 997.2 16.8 SW 19.0 0.0 1.6
11:13 8.7 5.8 82 997.2 15.2 S 19.0 0.0 1.6
11:14 8.7 5.8 82 997.2 16.8 S 19.0 0.0 1.6
11:15 8.7 5.6 81 997.2 15.9 NNW 19.0 0.0 1.6
11:16 8.7 5.8 82 997.3 11.4 S 19.0 0.0 1.6
11:17 8.7 5.8 82 997.2 13.6 S 19.0 0.0 1.6
11:18 8.7 5.8 82 997.3 15.2 S 19.0 0.0 1.6
11:19 8.7 5.8 82 997.4 10.7 SW 19.0 0.0 1.6
11:20 8.7 5.6 81 997.2 13.6 SW 19.0 0.0 1.6
11:21 8.6 5.5 81 997.2 13.6 SW 16.8 0.0 1.6
11:22 8.5 5.4 81 997.3 15.9 S 17.4 0.8 1.6
11:23 8.5 5.4 81 997.3 15.9 S 17.4 0.8 1.6
11:24 8.3 5.2 81 997.3 13.6 SW 17.4 0.8 1.6
11:25 8.3 5.2 81 997.3 14.5 S 17.4 0.8 1.6
11:26 8.1 5.0 81 997.2 14.5 S 17.4 0.8 1.6
11:27 8.0 4.9 81 997.4 14.5 S 17.4 0.0 1.6
11:28 7.9 4.8 81 997.3 13.6 SW 17.4 0.0 1.6
11:29 7.9 4.8 81 997.4 15.2 S 17.4 0.0 1.6
11:30 7.7 4.6 81 997.4 14.5 S 17.4 0.0 1.6
11:31 7.7 4.6 81 997.4 14.5 SW 17.4 0.0 1.6
11:32 7.5 4.5 81 997.4 13.6 S 16.8 0.0 1.6
11:33 7.5 4.5 81 997.5 19.7 S 19.7 0.0 1.6
11:34 7.4 4.4 81 997.5 22.8 S 22.8 0.0 1.6
11:35 7.3 4.4 82 997.5 17.4 S 22.8 0.0 1.6
11:36 7.1 4.2 82 997.4 9.8 S 22.8 0.0 1.6
11:37 7.0 4.1 82 997.6 13.0 S 22.8 0.0 1.6
11:38 6.9 4.0 82 997.6 12.1 S 22.8 0.0 1.6
11:39 6.9 4.2 83 997.5 12.1 S 22.8 0.0 1.6
11:40 6.7 4.2 84 997.5 9.2 S 22.8 0.0 1.6
11:41 6.7 4.2 84 997.6 10.7 S 22.8 0.0 1.6
11:42 6.8 4.5 85 997.5 9.2 S 22.8 0.0 1.6
11:44 6.9 4.7 86 997.5 9.8 S 22.8 0.0 1.6
11:45 7.0 4.8 86 997.4 7.6 SW 17.4 0.0 1.6
11:46 7.2 5.2 87 997.5 9.2 S 15.2 0.0 1.6
11:47 7.3 5.3 87 997.5 12.1 S 14.5 0.0 1.6
11:48 7.4 5.2 86 997.5 13.0 S 14.5 0.0 1.6
11:49 7.5 5.3 86 997.4 10.7 SW 14.5 0.0 1.6
11:50 7.7 5.7 87 997.4 9.8 S 13.0 0.0 1.6
11:51 7.7 5.7 87 997.3 9.8 SW 13.0 0.0 1.6
11:53 8.0 5.8 86 997.2 12.1 SW 13.0 0.0 1.6
11:54 8.2 6.2 87 997.4 11.4 SE 13.0 0.0 1.6
11:55 8.3 6.3 87 997.4 12.1 S 13.0 0.0 1.6
11:56 8.4 6.2 86 997.2 13.0 S 13.0 0.0 1.6
11:57 8.5 6.3 86 997.4 13.6 SW 14.5 0.0 1.6
11:58 8.6 6.4 86 997.3 12.1 SW 14.5 0.0 1.6
11:59 8.6 6.4 86 997.2 14.5 SW 14.5 0.0 1.6
12:00 8.7 6.3 85 997.3 16.8 SW 16.8 0.0 1.6
12:01 8.7 6.3 85 997.2 16.8 SW 16.8 0.0 1.6
12:02 8.8 6.2 84 997.2 18.3 SW 18.3 0.0 1.6
12:03 8.8 6.2 84 997.2 15.2 S 18.3 0.0 1.6
12:04 8.8 6.2 84 997.2 15.2 SW 18.3 0.0 1.6
12:06 8.9 6.3 84 997.2 18.3 S 18.3 0.0 1.6
12:07 9.0 6.4 84 997.3 15.2 SW 18.3 0.0 1.6
12:08 9.0 6.4 84 997.4 15.2 S 18.3 0.0 1.6
12:09 9.2 6.6 84 997.2 11.4 S 18.3 0.0 1.6
12:10 9.3 6.7 84 997.3 14.5 SW 18.3 0.0 1.6
12:12 9.4 6.7 83 997.2 16.8 S 18.3 0.0 1.6
12:13 9.4 6.7 83 997.2 17.4 SW 18.3 0.0 1.6
12:15 9.4 6.5 82 997.4 15.9 SSW 18.3 0.0 1.6
12:16 9.4 6.5 82 997.3 16.8 S 18.3 0.0 1.6
12:17 9.4 6.5 82 997.2 19.7 S 19.7 0.0 1.6
12:18 9.4 6.5 82 997.4 16.8 SW 19.7 0.0 1.6
12:19 9.3 6.2 81 997.4 19.0 S 19.7 0.0 1.6
12:20 9.3 6.2 81 997.4 15.9 SW 19.7 0.0 1.6
12:21 9.3 6.4 82 997.3 14.5 S 19.7 0.0 1.6
12:22 9.3 6.4 82 997.4 15.2 S 19.7 0.0 1.6
12:23 9.2 6.1 81 997.5 14.5 W 19.7 0.0 1.6
12:24 9.1 6.0 81 997.4 15.2 S 19.7 0.0 1.6
12:25 9.1 6.0 81 997.4 16.8 S 19.7 0.0 1.6
12:26 9.0 5.9 81 997.3 15.2 SW 19.7 0.0 1.6
12:27 8.9 6.0 82 997.5 16.8 SW 19.0 0.0 1.6
12:28 8.8 5.9 82 997.6 18.3 SW 19.0 0.0 1.6
12:29 8.7 5.6 81 997.5 17.4 S 19.0 0.0 1.6
12:30 8.7 5.6 81 997.6 19.0 S 19.0 0.0 1.6
12:31 8.5 5.4 81 997.5 18.3 SW 19.0 0.0 1.6
12:32 8.5 5.4 81 997.5 13.0 SW 19.0 0.0 1.6
12:33 8.4 5.3 81 997.6 22.8 SW 22.8 0.0 1.6
12:35 8.4 5.3 81 997.5 17.4 SW 22.8 0.0 1.6
12:36 8.3 5.2 81 997.6 19.0 S 22.8 0.0 1.6
12:37 8.2 5.1 81 997.7 19.7 SW 22.8 0.0 1.6
12:38 8.1 4.9 80 997.7 17.4 S 22.8 0.0 1.6
12:39 8.0 4.8 80 997.6 15.9 SW 22.8 0.0 1.6
12:40 7.9 4.7 80 997.5 13.6 SW 22.8 0.0 1.6
12:41 7.8 4.6 80 997.5 9.8 S 22.8 0.0 1.6
12:42 7.7 4.5 80 997.5 12.1 SW 22.8 0.0 1.6
12:43 7.7 4.6 81 997.4 9.8 SW 22.8 0.0 1.6
12:44 7.7 4.6 81 997.3 11.4 SW 19.7 0.0 1.6
12:45 7.9 5.0 82 997.2 13.0 S 19.7 0.0 1.6
12:46 8.0 5.3 83 997.3 13.6 SW 19.7 0.0 1.6
12:47 8.2 5.3 82 997.3 13.0 SW 17.4 0.0 1.6
12:48 8.3 5.4 82 997.5 14.5 SW 16.8 0.0 1.6
12:49 8.3 5.4 82 997.4 13.6 SW 16.8 0.0 1.6
12:50 8.4 5.3 81 997.3 12.1 SW 16.8 0.0 1.6
12:51 8.5 5.4 81 997.4 8.3 S 16.8 0.0 1.6
12:52 8.6 5.7 82 997.4 11.4 W 16.8 0.0 1.6
12:53 8.7 5.6 81 997.3 11.4 SW 16.8 0.0 1.6
12:54 8.8 5.9 82 997.3 9.2 NW 16.8 0.0 1.6
12:55 9.0 5.9 81 997.3 13.0 SW 16.8 0.0 1.6
12:56 9.0 5.9 81 997.4 15.9 S 16.8 0.0 1.6
12:57 9.1 6.0 81 997.4 13.6 S 15.9 0.0 1.6
12:58 9.1 5.8 80 997.4 10.7 S 15.9 0.0 1.6
12:59 9.1 6.0 81 997.4 12.1 WNW 15.9 0.0 1.6
13:01 9.1 6.0 81 997.5 12.1 WNW 15.9 0.0 1.6
13:02 9.1 5.8 80 997.5 18.3 WNW 18.3 0.0 1.6
13:03 9.0 5.7 80 997.5 14.5 S 18.3 0.0 1.6
13:04 8.8 5.4 79 997.3 13.6 S 18.3 0.0 1.6
13:05 8.8 5.4 79 997.2 13.0 SW 18.3 0.0 1.6
13:06 8.7 5.3 79 997.3 15.2 SW 18.3 0.0 1.6
13:07 8.7 5.3 79 997.4 13.6 SW 18.3 0.0 1.6
13:08 8.7 5.3 79 997.3 15.2 SW 18.3 0.0 1.6
13:09 8.8 5.5 80 997.2 12.1 W 18.3 0.0 1.6
13:10 8.9 5.5 79 997.3 14.5 SW 18.3 0.0 1.6
13:11 9.0 5.6 79 997.3 12.1 SW 18.3 0.0 1.6
13:12 9.0 5.4 78 997.4 12.1 S 16.8 0.0 1.6
13:13 9.1 5.5 78 997.2 14.5 SW 16.8 0.0 1.6
13:14 9.1 5.5 78 997.3 14.5 S 15.2 0.0 1.6
13:15 9.2 5.6 78 997.3 13.0 SW 15.2 0.0 1.6
13:16 9.2 5.6 78 997.4 13.6 S 15.2 0.0 1.6
13:17 9.2 5.6 78 997.3 15.2 S 15.2 0.0 1.6
13:18 9.2 5.6 78 997.2 16.8 S 16.8 0.0 1.6
13:20 9.3 5.7 78 997.4 20.6 S 20.6 0.0 1.6
13:21 9.3 5.7 78 997.3 12.1 W 20.6 0.0 1.6
13:22 9.3 5.7 78 997.2 10.7 NW 20.6 0.0 1.6
13:23 9.3 5.7 78 997.3 9.8 NW 20.6 0.0 1.6
13:24 9.2 5.8 79 997.2 12.1 SW 20.6 0.0 1.6
13:25 9.3 5.7 78 997.3 10.7 S 20.6 0.0 1.6
13:26 9.3 5.8 79 997.3 14.5 S 20.6 0.0 1.6
13:27 9.4 5.9 79 997.2 18.3 SW 20.6 0.0 1.6
13:28 9.5 6.0 79 997.1 17.4 S 20.6 0.0 1.6
13:29 9.5 6.2 80 997.3 16.8 SW 20.6 0.0 1.6
13:31 9.7 6.4 80 997.4 18.3 SW 18.3 0.0 1.6
13:32 9.7 6.2 79 997.3 15.9 S 18.3 0.0 1.6
13:33 9.8 6.3 79 997.2 15.2 S 18.3 0.0 1.6
13:34 9.8 6.3 79 997.3 18.3 S 18.3 0.0 1.6
13:35 9.7 6.2 79 997.3 17.4 NNE 18.3 0.0 1.6
13:36 9.7 6.2 79 997.2 16.8 SW 18.3 0.0 1.6
13:37 9.7 6.2 79 997.3 14.5 S 18.3 0.0 1.6
13:38 9.6 6.1 79 997.3 15.2 S 18.3 0.0 1.6
13:39 9.6 6.1 79 997.2 17.4 SW 18.3 0.0 1.6
13:40 9.6 6.1 79 997.3 12.1 S 18.3 0.0 1.6
13:41 9.6 6.3 80 997.2 15.2 S 18.3 0.0 1.6
13:42 9.6 6.3 80 997.2 9.8 S 18.3 0.0 1.6
13:43 9.7 6.6 81 997.3 13.6 SW 18.3 0.0 1.6
13:44 9.8 6.5 80 997.4 14.5 SW 17.4 0.0 1.6
13:45 9.8 6.5 80 997.2 13.0 S 17.4 0.0 1.6
13:46 9.8 6.3 79 997.4 17.4 SW 19.0 0.0 1.6
13:47 9.8 6.1 78 997.4 15.9 SW 19.0 0.0 1.6
13:48 9.7 5.9 77 997.2 16.8 NW 19.0 0.0 1.6
13:49 9.7 5.9 77 997.2 17.4 S 19.0 0.0 1.6
13:50 9.6 5.8 77 997.4 16.8 SW 19.0 0.0 1.6
13:51 9.6 5.6 76 997.3 17.4 SW 19.0 0.0 1.6
13:52 9.6 5.6 76 997.2 14.5 S 19.0 0.0 1.6
13:54 9.7 5.9 77 997.2 12.1 SW 19.0 0.0 1.6
13:55 9.7 5.9 77 997.2 12.1 S 19.0 0.0 1.6
13:56 9.8 5.8 76 997.2 15.2 SW 19.0 0.0 1.6
13:57 9.8 5.8 76 997.2 14.5 S 17.4 0.0 1.6
13:58 9.9 5.9 76 997.3 15.9 SW 17.4 0.0 1.6
13:59 10.0 6.0 76 997.2 13.0 SW 17.4 0.0 1.6
14:00 10.0 5.8 75 997.2 14.5 S 17.4 0.0 1.6
14:01 10.0 5.8 75 997.3 14.5 S 17.4 0.0 1.6
14:02 10.0 5.8 75 997.3 14.5 S 15.9 0.0 1.6
14:03 10.0 5.8 75 997.3 17.4 S 17.4 0.0 1.6
14:04 10.0 5.8 75 997.2 14.5 SW 17.4 0.0 1.6
14:05 10.0 5.8 75 997.2 19.0 S 19.0 0.0 1.6
14:06 10.0 5.8 75 997.0 15.2 S 19.0 0.0 1.6
14:07 10.0 5.6 74 997.0 17.4 S 19.0 0.0 1.6
14:08 9.9 5.5 74 997.0 10.7 S 19.0 0.0 1.6
14:09 10.0 5.8 75 997.0 16.8 S 19.0 0.0 1.6
14:11 10.0 5.6 74 996.8 18.3 SW 19.0 0.0 1.6
14:12 10.0 5.6 74 997.0 13.0 NNW 19.0 0.0 1.6
14:14 10.0 5.6 74 996.7 15.9 S 19.0 0.0 1.6
14:15 10.0 5.6 74 996.8 13.6 SW 18.3 0.0 1.6
14:17 10.0 5.6 74 996.9 13.6 SE 18.3 0.0 1.6
14:18 10.0 5.6 74 997.1 15.2 S 18.3 0.0 1.6
14:19 10.0 5.6 74 997.1 13.6 S 18.3 0.0 1.6
14:20 10.0 5.6 74 997.1 13.6 S 18.3 0.0 1.6
14:21 10.0 5.6 74 996.9 17.4 S 18.3 0.0 1.6
14:22 9.9 5.5 74 996.8 14.5 S 17.4 0.0 1.6
14:23 9.8 5.4 74 996.8 14.5 S 17.4 0.0 1.6
14:24 9.8 5.4 74 996.9 14.5 S 17.4 0.0 1.6
14:25 9.7 5.3 74 997.0 17.4 SW 17.4 0.0 1.6
14:26 9.6 5.4 75 997.1 14.5 S 17.4 0.0 1.6
14:27 9.6 5.4 75 997.0 15.2 S 17.4 0.0 1.6
14:28 9.5 5.3 75 996.9 10.7 SW 17.4 0.0 1.6
14:29 9.5 5.5 76 997.0 11.4 S 17.4 0.0 1.6
14:31 9.5 5.5 76 996.9 11.4 S 17.4 0.0 1.6
14:32 9.5 5.5 76 996.9 15.2 S 17.4 0.0 1.6
14:33 9.4 5.2 75 996.9 13.0 S 17.4 0.0 1.6
14:34 9.3 5.3 76 996.9 12.1 S 17.4 0.0 1.6
14:35 9.2 5.2 76 996.9 9.2 SW 15.2 0.0 1.6
14:36 9.1 5.1 76 997.0 14.5 S 15.2 0.0 1.6
14:37 9.0 5.0 76 997.1 13.0 S 15.2 0.0 1.6
14:38 8.9 4.9 76 997.0 13.6 SW 15.2 0.0 1.6
14:39 8.8 4.8 76 997.0 16.8 NNW 16.8 0.0 1.6
14:40 8.8 5.0 77 997.0 14.5 S 16.8 0.0 1.6
14:41 8.7 4.9 77 997.0 11.4 S 16.8 0.0 1.6
14:42 8.6 4.8 77 997.0 16.8 S 16.8 0.0 1.6
14:43 8.6 4.8 77 997.0 13.6 SW 16.8 0.0 1.6
14:44 8.5 4.7 77 997.0 10.7 SW 16.8 0.0 1.6
14:45 8.4 4.8 78 997.0 15.2 SW 16.8 0.0 1.6
14:46 8.4 4.8 78 996.9 12.1 S 16.8 0.0 1.6
14:47 8.4 5.0 79 996.9 9.8 SW 16.8 0.0 1.6
14:48 8.4 5.0 79 996.9 15.9 S 16.8 0.0 1.6
14:49 8.5 5.1 79 997.0 9.8 SW 16.8 0.0 1.6
14:50 8.6 5.3 80 996.9 15.9 S 16.8 0.0 1.6
14:51 8.7 5.4 80 996.8 13.6 SW 16.8 0.0 1.6
14:52 8.7 5.4 80 996.7 12.1 SW 15.9 0.0 1.6
14:53 8.8 5.5 80 996.7 15.9 S 15.9 0.0 1.6
14:54 8.9 5.6 80 996.9 17.4 S 17.4 0.0 1.6
14:55 8.9 5.6 80 997.0 18.3 S 18.3 0.0 1.6
14:56 8.9 5.6 80 996.7 14.5 S 18.3 0.0 1.6
14:57 9.0 5.7 80 996.9 16.8 S 18.3 0.0 1.6
14:59 9.0 5.7 80 996.9 15.2 S 18.3 0.0 1.6
15:01 9.0 5.7 80 996.8 15.2 S 18.3 0.0 1.6
15:02 9.0 5.7 80 996.7 18.3 S 18.3 0.0 1.6
15:03 9.0 5.7 80 996.7 15.2 S 18.3 0.0 1.6
15:04 9.0 5.7 80 996.7 19.0 S 19.0 0.0 1.6
15:05 8.9 5.6 80 996.8 13.0 S 22.8 0.0 1.6
15:06 9.0 5.9 81 996.9 12.1 S 22.8 0.0 1.6
15:07 9.0 5.9 81 996.7 14.5 S 22.8 0.0 1.6
15:08 9.2 6.1 81 996.8 18.3 SW 22.8 0.0 1.6
15:09 9.2 5.9 80 996.8 16.8 S 22.8 0.0 1.6
15:10 9.3 6.0 80 996.8 15.2 SW 22.8 0.0 1.6
15:11 9.3 5.8 79 996.9 14.5 S 22.8 0.0 1.6
15:12 9.2 5.9 80 996.8 15.9 SW 22.8 0.0 1.6
15:13 9.2 5.8 79 996.9 15.2 S 22.8 0.0 1.6
15:14 9.2 5.8 79 996.8 15.9 S 22.8 0.0 1.6
15:15 9.1 5.7 79 996.6 16.8 SW 19.0 0.0 1.6
15:16 9.1 5.8 80 996.8 16.8 SW 19.0 0.0 1.6
15:17 9.2 5.9 80 996.9 18.3 SW 19.0 0.0 1.6
15:18 9.2 5.9 80 996.7 17.4 SW 19.0 0.0 1.6
15:19 9.3 5.8 79 996.8 17.4 NW 19.0 0.0 1.6
15:20 9.3 5.8 79 996.7 18.3 NW 19.0 0.0 1.6
15:21 9.4 6.1 80 996.8 20.6 S 20.6 0.0 1.6
15:22 9.4 6.1 80 996.7 19.7 S 20.6 0.0 1.6
15:23 9.5 6.0 79 996.7 10.7 S 20.6 0.0 1.6
15:24 9.5 6.2 80 996.7 16.8 N 20.6 0.0 1.6
15:25 9.4 5.9 79 996.8 15.2 SW 20.6 0.0 1.6
15:27 9.3 5.8 79 996.7 13.0 S 20.6 0.0 1.6
15:28 9.3 5.8 79 996.6 19.0 SW 20.6 0.0 1.6
15:29 9.2 5.8 79 996.7 15.9 SW 20.6 0.0 1.6
15:30 9.2 5.8 79 996.8 16.8 S 20.6 0.0 1.6
15:31 9.1 5.7 79 996.7 16.8 S 20.6 0.0 1.6
15:33 8.9 5.5 79 996.8 17.4 N 19.0 0.0 1.6
15:34 8.9 5.5 79 996.9 13.6 S 19.0 0.0 1.6
15:35 8.8 5.5 80 996.5 13.6 SW 19.0 0.0 1.6
15:36 8.7 5.4 80 996.8 13.0 SW 19.0 0.0 1.6
15:37 8.6 5.3 80 996.6 9.8 SW 19.0 0.0 1.6
15:38 8.6 5.3 80 996.6 13.0 S 17.4 0.0 1.6
15:39 8.5 5.2 80 996.6 14.5 SW 17.4 0.0 1.6
15:40 8.4 5.2 80 996.7 15.9 SW 17.4 0.0 1.6
15:41 8.4 5.2 80 996.8 13.6 SW 17.4 0.0 1.6
15:43 8.3 5.1 80 996.7 15.9 SW 17.4 0.0 1.6
15:44 8.3 5.1 80 996.6 13.6 S 15.9 0.0 1.6
15:45 8.2 5.1 81 996.7 13.6 NW 15.9 0.0 1.6
15:46 8.1 5.0 81 996.6 13.0 SW 15.9 0.0 1.6
15:47 8.1 5.0 81 996.7 13.0 S 15.9 0.0 1.6
15:48 8.1 5.0 81 996.7 11.4 S 15.9 0.0 1.6
15:49 8.0 4.9 81 996.7 9.8 SW 15.9 0.0 1.6
15:50 8.0 5.1 82 996.7 15.9 SW 15.9 0.0 1.6
15:51 8.0 5.1 82 996.6 14.5 SW 15.9 0.0 1.6
15:52 8.0 5.1 82 996.5 14.5 N 15.9 0.0 1.6
15:53 7.9 5.0 82 996.6 13.0 SW 15.9 0.0 1.6
15:54 7.9 5.0 82 996.4 12.1 SW 15.9 0.0 1.6
15:55 7.9 5.0 82 996.5 8.3 SW 15.9 0.0 1.6
15:56 7.9 5.0 82 996.5 12.1 SW 15.9 0.0 1.6
15:57 7.9 5.0 82 996.5 8.3 SW 15.9 0.0 1.6
15:58 7.8 4.9 82 996.5 11.4 SW 15.9 0.0 1.6
15:59 7.8 4.9 82 996.5 6.9 S 15.9 0.0 1.6
16:00 7.8 4.9 82 996.6 6.9 S 14.5 0.0 1.6
16:01 7.8 4.9 82 996.5 6.9 S 14.5 0.0 1.6
16:03 7.8 5.1 83 996.5 15.9 SW 19.0 0.0 1.6
16:04 7.7 5.0 83 996.5 12.1 S 19.0 0.0 1.6
16:05 7.7 5.0 83 996.6 13.6 S 19.0 0.0 1.6
16:06 7.7 5.0 83 996.5 11.4 S 19.0 0.0 1.6
16:07 7.7 5.0 83 996.6 13.0 SW 19.0 0.0 1.6
16:08 7.7 5.0 83 996.5 9.8 S 19.0 0.0 1.6
16:09 7.7 5.0 83 996.7 11.4 S 19.0 0.0 1.6
16:10 7.7 5.0 83 996.6 14.5 S 19.0 0.0 1.6
16:11 7.6 4.9 83 996.6 11.4 S 19.0 0.0 1.6
16:13 7.7 5.0 83 996.6 10.7 SW 15.9 0.0 1.6
16:14 7.7 5.0 83 996.4 13.0 SW 14.5 0.0 1.6
16:16 7.7 5.0 83 996.5 13.0 SW 16.8 0.0 1.6
16:17 7.7 5.0 83 996.4 14.5 S 16.8 0.0 1.6
16:18 7.7 5.0 83 996.5 17.4 SW 17.4 0.0 1.6
16:19 7.7 5.0 83 996.6 9.8 NW 17.4 0.0 1.6
16:21 7.7 5.0 83 996.3 10.7 SW 17.4 0.0 1.6
16:22 7.6 4.9 83 996.4 9.2 SW 17.4 0.0 1.6
16:23 7.7 5.0 83 996.4 9.2 SW 17.4 0.0 1.6
16:24 7.6 4.9 83 996.5 11.4 S 17.4 0.0 1.6
16:25 7.6 4.9 83 996.4 9.8 S 17.4 0.0 1.6
16:26 7.6 4.9 83 996.3 10.7 SW 17.4 0.0 1.6
16:27 7.6 4.9 83 996.4 9.8 S 17.4 0.0 1.6
16:28 7.6 4.9 83 996.4 12.1 S 17.4 0.0 1.6
16:29 7.5 4.8 83 996.6 10.7 S 13.6 0.0 1.6
16:30 7.5 4.8 83 996.4 10.7 SW 13.6 0.0 1.6
16:31 7.5 4.8 83 996.4 9.2 S 13.6 0.0 1.6
16:32 7.5 4.8 83 996.6 9.2 S 13.6 0.0 1.6
16:33 7.5 4.8 83 996.3 8.3 S 13.6 0.0 1.6
16:34 7.5 4.8 83 996.5 12.1 S 13.6 0.0 1.6
16:35 7.5 4.8 83 996.3 10.7 S 13.0 0.0 1.6
16:36 7.5 4.8 83 996.2 13.6 S 13.6 0.0 1.6
16:37 7.5 4.8 83 996.3 10.7 S 13.6 0.0 1.6
16:39 7.4 4.7 83 996.2 9.8 SW 13.6 0.0 1.6
16:40 7.4 4.7 83 996.2 10.7 S 13.6 0.0 1.6
16:41 7.5 4.8 83 996.2 9.2 S 13.6 0.0 1.6
16:42 7.5 4.8 83 996.3 10.7 S 13.6 0.0 1.6
16:43 7.5 4.8 83 996.2 10.7 S 13.6 0.0 1.6
16:44 7.4 4.7 83 996.3 10.7 S 13.6 0.0 1.6
16:45 7.4 4.5 82 996.3 9.8 S 13.6 0.0 1.6
16:46 7.5 4.6 82 996.2 8.3 S 13.6 0.0 1.6
16:47 7.5 4.6 82 996.3 9.8 S 12.1 0.0 1.6
16:48 7.5 4.6 82 996.2 13.0 SW 13.0 0.0 1.6
16:49 7.5 4.6 82 996.3 13.0 S 13.0 0.0 1.6
16:50 7.6 4.7 82 996.3 13.0 S 13.0 0.0 1.6
16:51 7.7 5.0 83 996.2 10.7 S 13.0 0.0 1.6
16:52 7.7 4.8 82 996.2 12.1 S 13.0 0.0 1.6
16:54 7.7 4.8 82 996.2 9.2 S 13.0 0.0 1.6
16:55 7.7 4.8 82 996.2 8.3 S 13.0 0.0 1.6
16:56 7.7 4.8 82 996.2 11.4 S 13.0 0.0 1.6
16:57 7.8 4.9 82 996.2 9.8 S 13.0 0.0 1.6
16:58 7.8 4.9 82 996.1 10.7 S 13.0 0.0 1.6
16:59 7.9 5.0 82 996.2 9.8 S 13.0 0.0 1.6
17:00 7.9 5.0 82 996.2 10.7 S 13.0 0.0 1.6
17:01 7.9 5.0 82 996.2 10.7 S 12.1 0.0 1.6
17:02 8.0 5.1 82 996.2 11.4 S 12.1 0.0 1.6
17:03 8.0 5.1 82 996.2 8.3 S 11.4 0.0 1.6
17:04 8.0 5.1 82 996.2 8.3 S 11.4 0.0 1.6
17:05 8.0 5.1 82 996.1 10.7 S 11.4 0.0 1.6
17:06 8.0 5.1 82 996.1 6.9 SW 11.4 0.0 1.6
17:07 8.1 5.2 82 996.1 7.6 S 11.4 0.0 1.6
17:08 8.0 5.1 82 996.1 6.0 S 11.4 0.0 1.6
17:10 8.0 5.1 82 996.1 12.1 SW 12.1 0.0 1.6
17:11 8.0 5.1 82 996.1 13.0 S 13.0 0.0 1.6
17:12 8.0 5.1 82 996.1 10.7 S 13.0 0.0 1.6
17:13 7.9 5.0 82 996.0 7.6 S 13.0 0.0 1.6
17:14 7.9 5.0 82 996.2 10.7 S 13.0 0.0 1.6
17:15 7.8 4.9 82 996.1 9.8 S 13.0 0.0 1.6
17:16 7.8 4.9 82 996.1 9.8 S 13.0 0.0 1.6
17:17 7.7 4.8 82 996.1 9.2 S 13.0 0.0 1.6
17:18 7.7 4.8 82 996.2 6.9 SW 13.0 0.0 1.6
17:19 7.7 4.8 82 996.1 7.6 S 13.0 0.0 1.6
17:20 7.6 4.7 82 996.0 7.6 S 13.0 0.0 1.6
17:21 7.6 4.7 82 996.1 8.3 S 12.1 0.0 1.6
17:22 7.5 4.6 82 996.1 10.7 S 12.1 0.0 1.6
17:23 7.5 4.6 82 996.1 9.8 S 10.7 0.0 1.6
17:24 7.4 4.7 83 996.1 9.8 S 10.7 0.0 1.6
17:25 7.4 4.7 83 996.1 7.6 S 10.7 0.0 1.6
17:26 7.3 4.6 83 996.1 11.4 S 11.4 0.0 1.6
17:27 7.3 4.6 83 996.1 13.0 W 13.0 0.0 1.6
17:29 7.2 4.5 83 996.1 9.2 WNW 13.0 0.0 1.6
17:30 7.1 4.4 83 996.2 7.6 SE 13.0 0.0 1.6
17:31 7.1 4.4 83 996.0 6.9 S 13.0 0.0 1.6
17:32 7.0 4.3 83 996.2 7.6 S 13.0 0.0 1.6
17:33 7.0 4.3 83 996.0 8.3 S 13.0 0.0 1.6
17:34 6.9 4.2 83 996.0 8.3 S 13.0 0.0 1.6
17:35 6.9 4.4 84 996.1 9.2 SE 13.0 0.0 1.6
17:36 6.8 4.3 84 996.1 6.9 S 13.0 0.0 1.6
17:37 6.8 4.3 84 996.1 7.6 S 13.0 0.0 1.6
17:38 6.7 4.2 84 996.0 6.9 SE 9.2 0.0 1.6
17:39 6.7 4.2 84 996.0 6.9 S 9.2 0.0 1.6
17:40 6.7 4.2 84 995.8 6.9 S 9.2 0.0 1.6
17:41 6.6 4.1 84 996.0 6.0 S 9.2 0.0 1.6
17:43 6.6 4.3 85 996.0 6.0 S 9.2 0.0 1.6
17:44 6.6 4.3 85 995.9 5.4 S 9.2 0.0 1.6
17:45 6.6 4.3 85 995.9 5.4 S 9.2 0.0 1.6
17:46 6.5 4.2 85 995.9 6.9 S 8.3 0.0 1.6
17:47 6.5 4.2 85 996.0 6.9 S 8.3 0.0 1.6
17:48 6.5 4.2 85 995.7 5.4 S 8.3 0.0 1.6
17:49 6.5 4.2 85 995.7 5.4 S 8.3 0.0 1.6
17:50 6.5 4.2 85 995.9 5.4 S 8.3 0.0 1.6
17:51 6.4 4.1 85 995.8 6.0 S 8.3 0.0 1.6
17:52 6.4 4.2 86 995.8 6.9 S 8.3 0.0 1.6
17:53 6.4 4.2 86 995.7 7.6 SE 7.6 0.0 1.6
17:54 6.5 4.3 86 995.8 9.2 SE 9.8 0.0 1.6
17:55 6.4 4.2 86 995.9 9.8 S 9.8 0.0 1.6
17:56 6.4 4.4 87 995.9 12.1 S 12.1 0.0 1.6
17:57 6.4 4.4 87 995.9 9.8 SE 12.1 0.0 1.6
17:59 6.4 4.4 87 995.7 12.1 W 13.6 0.0 1.6
18:01 6.4 4.4 87 995.8 12.1 W 13.6 0.0 1.6
18:02 6.4 4.4 87 995.7 12.1 W 13.6 0.0 1.6
18:03 6.4 4.4 87 995.7 12.1 W 13.6 0.0 1.6
18:04 6.4 4.4 87 995.7 9.8 S 13.6 0.0 1.6
18:05 6.4 4.6 88 995.7 13.0 S 13.6 0.0 1.6
18:06 6.4 4.6 88 995.7 10.7 S 13.6 0.0 1.6
18:07 6.4 4.6 88 995.6 11.4 S 13.6 0.0 1.6
18:09 6.4 4.6 88 995.6 13.0 S 13.0 0.0 1.6
18:10 6.3 4.5 88 995.7 10.7 S 13.0 0.0 1.6
18:11 6.3 4.6 89 995.7 10.7 S 13.0 0.0 1.6
18:13 6.3 4.6 89 995.7 13.6 SW 13.6 0.0 1.6
18:14 6.3 4.6 89 995.8 12.1 S 13.6 0.0 1.6
18:15 6.3 4.6 89 995.8 13.0 S 13.6 0.0 1.7
18:17 6.3 4.6 89 995.9 12.1 S 13.6 2.3 1.8
18:19 6.3 4.6 89 995.9 11.4 S 13.6 3.8 2.0
18:20 6.2 4.5 89 996.0 10.7 S 13.6 4.5 2.0
18:21 6.2 4.7 90 996.0 11.4 S 13.6 5.3 2.1
18:22 6.2 4.7 90 995.9 16.8 NNW 16.8 3.8 2.1
18:23 6.2 4.7 90 995.9 16.8 S 16.8 4.5 2.2
18:24 6.2 4.7 90 995.8 15.9 SE 16.8 3.0 2.3
18:26 6.1 4.7 91 996.1 13.6 SW 16.8 1.5 2.3
18:27 6.1 4.6 90 996.0 15.2 S 16.8 1.5 2.3
18:28 6.0 4.5 90 996.1 15.9 SE 16.8 0.8 2.3
18:29 6.0 4.6 91 996.1 11.4 S 16.8 2.3 2.4
18:30 6.0 4.6 91 996.1 14.5 S 16.8 1.5 2.4
18:31 5.9 4.5 91 995.9 11.4 S 16.8 2.3 2.5
18:32 5.9 4.5 91 995.8 9.8 S 16.8 2.3 2.5
18:33 5.8 4.4 91 995.7 7.6 S 16.8 3.0 2.5
18:34 5.8 4.4 91 995.8 6.9 S 15.9 1.5 2.5
18:35 5.7 4.3 91 995.9 8.3 S 15.9 1.5 2.5
18:36 5.7 4.3 91 995.8 8.3 S 15.9 0.8 2.5
18:37 5.7 4.3 91 995.6 6.0 S 15.9 0.8 2.5
18:38 5.7 4.3 91 995.7 4.5 S 14.5 0.0 2.5
18:40 5.6 4.4 92 995.7 5.4 S 14.5 0.0 2.5
18:41 5.6 4.4 92 995.8 7.6 S 9.8 0.8 2.6
18:42 5.6 4.4 92 995.8 7.6 S 8.3 0.8 2.6
18:43 5.6 4.4 92 995.9 7.6 SW 8.3 0.8 2.6
18:44 5.6 4.4 92 996.0 7.6 SW 8.3 1.5 2.6
18:45 5.5 4.3 92 995.9 4.5 S 8.3 3.0 2.8
18:46 5.5 4.3 92 996.0 7.6 SE 8.3 2.3 2.8
18:47 5.5 4.3 92 996.3 9.8 S 9.8 2.3 2.8
18:48 5.5 4.3 92 996.4 16.8 S 16.8 3.0 3.0
18:50 5.4 4.4 93 996.2 15.2 S 16.8 5.3 3.2
18:51 5.4 4.4 93 996.2 13.0 S 16.8 6.8 3.3
18:52 5.3 4.3 93 996.0 13.0 S 16.8 7.5 3.5
18:53 5.2 4.2 93 995.9 9.8 S 16.8 7.5 3.5
18:54 5.2 4.2 93 995.9 7.6 S 16.8 5.3 3.5
18:55 5.1 4.1 93 995.8 8.3 S 16.8 3.8 3.5
18:56 5.1 4.1 93 996.0 6.9 S 16.8 2.3 3.6
18:57 5.0 4.0 93 995.8 7.6 S 16.8 2.3 3.6
18:58 5.0 4.0 93 995.9 9.8 S 16.8 1.5 3.6
19:00 5.0 4.0 93 995.9 6.9 S 15.2 0.8 3.6
19:01 5.0 4.0 93 995.9 6.9 S 13.0 0.8 3.6
19:02 5.0 4.0 93 995.7 6.9 S 13.0 0.0 3.6
19:03 5.0 4.0 93 995.7 6.9 S 9.8 0.0 3.6
19:04 5.0 4.0 93 995.8 6.9 S 9.8 0.0 3.6
19:05 4.9 3.9 93 995.6 3.8 S 9.8 0.0 3.6
19:07 4.9 4.0 94 995.6 4.5 N 9.8 0.0 3.6
19:08 4.9 4.0 94 995.6 4.5 N 9.8 0.0 3.6
19:09 4.8 3.9 94 995.5 5.4 N 6.9 0.0 3.6
19:10 4.8 3.9 94 995.4 3.1 N 6.9 0.0 3.6
19:11 4.8 3.9 94 995.4 3.8 N 6.9 0.0 3.6
19:12 4.8 3.9 94 995.4 3.8 N 6.9 0.0 3.6
19:14 4.8 3.9 94 995.4 4.5 S 6.9 0.0 3.6
19:15 4.8 3.9 94 995.5 3.8 S 6.9 0.0 3.6
19:16 4.8 3.9 94 995.6 3.8 S 5.4 0.0 3.6
19:17 4.8 3.9 94 995.5 4.5 S 5.4 0.0 3.6
19:18 4.7 3.8 94 995.6 4.5 S 6.0 0.0 3.6
19:19 4.8 4.1 95 995.6 5.4 S 6.0 0.0 3.6
19:20 4.7 3.8 94 995.6 5.4 S 6.0 0.0 3.7
19:21 4.7 4.0 95 995.6 3.8 S 6.0 0.8 3.7
19:23 4.7 4.0 95 995.6 3.8 S 6.0 0.8 3.7
19:24 4.7 4.0 95 995.7 6.0 S 6.9 0.8 3.7
19:25 4.8 4.1 95 995.6 5.4 S 6.9 0.8 3.7
19:26 4.7 4.0 95 995.5 6.9 S 6.9 0.8 3.7
19:27 4.8 4.1 95 995.4 9.2 S 9.2 0.8 3.7
19:28 4.8 4.1 95 995.4 4.5 S 9.2 0.8 3.7
19:29 4.8 4.1 95 995.5 9.8 S 9.8 0.8 3.7
19:30 4.8 4.2 96 995.4 13.0 S 13.0 0.8 3.7
19:32 4.9 4.3 96 995.4 10.7 S 13.0 0.0 3.7
19:33 4.9 4.3 96 995.3 12.1 S 13.0 0.0 3.7
19:34 4.9 4.3 96 995.4 15.9 S 15.9 0.0 3.7
19:35 4.9 4.3 96 995.4 12.1 S 15.9 0.0 3.7
19:36 5.0 4.4 96 995.3 9.2 S 15.9 0.0 3.7
19:37 5.0 4.4 96 995.4 10.7 S 15.9 0.0 3.7
19:38 5.0 4.4 96 995.5 6.0 S 15.9 0.0 3.7
19:40 5.0 4.4 96 995.4 11.4 S 15.9 0.0 3.7
19:41 5.0 4.4 96 995.4 12.1 S 15.9 0.0 3.7
19:42 4.9 4.3 96 995.4 8.3 S 15.9 0.0 3.7
19:43 4.9 4.3 96 995.3 8.3 S 15.9 0.0 3.7
19:44 4.9 4.3 96 995.4 10.7 NW 15.9 0.0 3.7
19:45 4.9 4.3 96 995.4 8.3 S 12.1 0.0 3.7
19:46 4.8 4.2 96 995.5 10.7 S 12.1 0.0 3.7
19:47 4.8 4.2 96 995.4 9.2 S 12.1 0.0 3.7
19:48 4.8 4.2 96 995.4 7.6 N 12.1 0.0 3.7
19:50 4.8 4.2 96 995.5 8.3 S 12.1 0.0 3.7
19:51 4.8 4.2 96 995.5 8.3 S 12.1 0.0 3.7
19:52 4.7 4.1 96 995.5 7.6 S 10.7 0.0 3.7
19:53 4.7 4.1 96 995.4 6.9 S 10.7 0.0 3.7
19:54 4.7 4.1 96 995.3 6.0 S 10.7 0.0 3.7
19:55 4.6 4.0 96 995.4 7.6 S 10.7 0.0 3.7
19:57 4.6 4.0 96 995.3 7.6 S 9.8 0.0 3.7
19:58 4.6 4.0 96 995.3 7.6 S 9.8 0.0 3.7
19:59 4.5 3.9 96 995.3 6.9 S 9.8 0.0 3.7
20:01 4.5 3.9 96 995.2 8.3 S 8.3 0.0 3.7
20:03 4.5 3.9 96 995.4 8.3 S 8.3 0.0 3.7
20:04 4.5 3.9 96 995.3 8.3 S 8.3 0.0 3.7
20:05 4.5 3.9 96 995.2 8.3 S 8.3 0.0 3.7
20:06 4.3 3.9 97 995.2 7.6 S 8.3 0.0 3.7
20:08 4.3 3.7 96 995.2 7.6 N 8.3 0.0 3.7
20:09 4.2 3.8 97 995.3 7.6 S 8.3 0.0 3.7
20:10 4.2 3.8 97 995.3 8.3 S 8.3 0.0 3.7
20:11 4.2 3.8 97 995.3 6.9 S 9.2 0.0 3.7
20:13 4.2 3.8 97 995.2 8.3 S 9.2 0.0 3.7
20:15 4.1 3.7 97 995.3 8.3 S 9.2 0.0 3.7
20:16 4.1 3.7 97 995.2 6.0 S 9.2 0.0 3.7
20:18 4.1 3.7 97 995.2 6.0 S 9.2 0.0 3.7
20:19 4.1 3.7 97 995.2 5.4 S 9.2 0.0 3.7
20:21 4.0 3.6 97 995.0 5.4 S 8.3 0.0 3.7
20:23 4.0 3.6 97 995.1 6.0 S 8.3 0.0 3.7
20:24 4.0 3.6 97 995.2 5.4 S 8.3 0.0 3.7
20:26 3.9 3.5 97 995.1 6.9 S 6.9 0.0 3.7
20:27 3.9 3.5 97 995.1 5.4 S 6.9 0.0 3.7
20:28 3.9 3.5 97 995.1 4.5 S 6.9 0.0 3.7
20:29 3.9 3.5 97 995.2 3.8 S 6.9 0.0 3.7
20:30 3.9 3.5 97 994.9 7.6 S 7.6 0.0 3.7
20:32 3.9 3.5 97 995.0 5.4 S 7.6 0.0 3.7
20:33 3.9 3.5 97 995.0 5.4 S 7.6 0.0 3.7
20:34 3.8 3.4 97 994.7 7.6 S 7.6 0.0 3.7
20:35 3.9 3.5 97 994.8 6.9 S 7.6 0.0 3.7
20:36 3.9 3.5 97 994.9 9.2 W 9.2 0.0 3.7
20:37 3.9 3.6 98 994.8 8.3 S 9.2 0.0 3.7
20:38 3.9 3.6 98 994.9 7.6 S 9.2 0.0 3.7
20:39 4.0 3.7 98 994.8 6.9 S 9.2 0.0 3.7
20:40 4.0 3.7 98 994.8 7.6 S 9.2 0.0 3.7
20:42 4.0 3.7 98 994.8 8.3 S 9.2 0.0 3.7
20:43 4.0 3.7 98 994.9 7.6 WSW 9.2 0.0 3.7
20:45 4.1 3.8 98 994.9 6.0 S 9.2 0.0 3.7
20:46 4.1 3.8 98 994.7 6.0 S 9.2 0.0 3.7
20:47 4.1 3.8 98 994.9 5.4 S 9.2 0.0 3.7
20:48 4.1 3.8 98 994.9 5.4 S 9.2 0.0 3.7
20:49 4.1 3.8 98 995.0 4.5 S 8.3 0.0 3.7
20:50 4.1 3.8 98 995.0 6.0 S 8.3 0.0 3.7
20:51 4.2 3.9 98 994.9 4.5 S 8.3 0.0 3.7
20:52 4.2 3.9 98 994.8 3.8 S 7.6 0.0 3.7
20:53 4.2 3.9 98 994.9 5.4 S 7.6 0.0 3.7
20:55 4.2 3.9 98 995.0 4.5 S 6.0 0.0 3.7
20:56 4.2 3.9 98 994.9 6.0 S 6.0 0.0 3.7
20:57 4.2 4.1 99 994.9 6.0 S 6.0 0.0 3.7
20:58 4.2 4.1 99 994.9 6.0 S 6.0 0.0 3.7
20:59 4.3 4.2 99 994.7 5.4 S 6.0 0.0 3.7
21:00 4.3 4.2 99 994.8 5.4 S 6.0 0.0 3.7
21:01 4.3 4.2 99 994.8 5.4 S 6.0 0.0 3.7
21:03 4.3 4.2 99 994.8 5.4 S 6.0 0.0 3.7
21:04 4.3 4.2 99 994.9 5.4 S 6.0 0.0 3.7
21:05 4.3 4.2 99 994.9 4.5 S 6.0 0.0 3.7
21:07 4.4 4.3 99 994.8 4.5 S 6.0 0.0 3.7
21:08 4.4 4.3 99 994.8 4.5 S 6.0 0.0 3.7
21:09 4.4 4.3 99 994.8 3.8 S 6.0 0.0 3.7
21:10 4.4 4.3 99 994.6 4.5 S 6.0 0.0 3.7
21:12 4.4 4.3 99 994.6 6.9 S 6.9 0.0 3.7
21:13 4.5 4.4 99 994.7 5.4 S 6.9 0.0 3.7
21:14 4.5 4.4 99 994.7 5.4 S 6.9 0.0 3.7
21:15 4.5 4.4 99 994.7 4.5 S 6.9 0.0 3.7
21:16 4.6 4.5 99 994.6 5.4 S 6.9 0.0 3.7
21:17 4.6 4.5 99 994.6 3.1 S 6.9 0.0 3.7
21:18 4.6 4.5 99 994.6 3.1 S 6.9 0.0 3.7
21:19 4.6 4.5 99 994.7 3.8 S 6.9 0.0 3.7
21:21 4.7 4.6 99 994.7 5.4 S 6.9 0.0 3.7
21:22 4.7 4.6 99 994.6 5.4 S 6.9 0.0 3.7
21:23 4.7 4.6 99 994.6 3.8 S 5.4 0.0 3.7
21:24 4.7 4.6 99 994.5 6.0 S 6.0 0.0 3.7
21:25 4.8 4.7 99 994.5 4.5 S 6.0 0.0 3.7
21:26 4.8 4.7 99 994.6 5.4 S 6.0 0.0 3.7
21:27 4.8 4.7 99 994.6 6.0 S 6.0 0.0 3.7
21:29 4.9 4.8 99 994.6 6.9 S 6.9 0.0 3.7
21:30 4.9 4.8 99 994.7 5.4 S 6.9 0.0 3.7
21:31 4.9 4.8 99 994.5 7.6 NW 7.6 0.0 3.7
21:32 5.0 4.9 99 994.5 5.4 S 7.6 0.0 3.7
21:33 5.1 5.0 99 994.2 5.4 S 7.6 0.0 3.7
21:34 5.1 5.0 99 994.3 6.0 S 7.6 0.0 3.7
21:36 5.2 5.1 99 994.4 8.3 S 8.3 0.0 3.7
21:37 5.2 5.1 99 994.2 8.3 S 8.3 0.0 3.7
21:38 5.3 5.2 99 994.4 6.9 S 8.3 0.0 3.7
21:39 5.3 5.2 99 994.2 7.6 S 9.8 0.0 3.7
21:40 5.4 5.3 99 994.2 6.9 S 9.8 0.0 3.7
21:41 5.5 5.4 99 994.2 11.4 S 11.4 0.0 3.7
21:42 5.5 5.4 99 994.3 9.2 S 11.4 0.0 3.7
21:44 5.6 5.5 99 994.3 6.9 S 11.4 0.0 3.7
21:45 5.6 5.5 99 994.2 7.6 S 11.4 0.0 3.7
21:46 5.6 5.5 99 994.2 8.3 S 11.4 0.0 3.7
21:47 5.7 5.6 99 994.1 7.6 S 11.4 0.0 3.7
21:48 5.7 5.6 99 994.1 8.3 S 11.4 0.0 3.7
21:49 5.8 5.7 99 994.2 9.8 S 11.4 0.0 3.7
21:50 5.8 5.7 99 994.1 11.4 S 11.4 0.0 3.7
21:52 5.8 5.7 99 994.0 8.3 S 11.4 0.0 3.7
21:53 5.8 5.7 99 993.9 9.8 S 11.4 0.0 3.7
21:54 5.9 5.8 99 994.1 10.7 S 11.4 0.0 3.7
21:55 5.9 5.8 99 994.1 13.6 S 13.6 0.0 3.7
21:56 5.9 5.8 99 994.0 13.0 WSW 13.6 0.0 3.7
21:57 6.0 5.9 99 993.9 7.6 S 13.6 0.0 3.7
21:59 6.0 5.9 99 993.8 10.7 S 13.6 0.0 3.7
22:00 6.0 5.9 99 993.8 8.3 S 13.6 0.0 3.7
22:01 6.0 5.9 99 993.9 8.3 S 13.6 0.0 3.7
22:02 6.0 5.9 99 993.8 8.3 S 13.6 0.0 3.7
22:03 6.0 5.9 99 994.0 8.3 S 13.6 0.0 3.7
22:04 6.0 5.9 99 993.8 8.3 S 13.6 0.0 3.7
22:05 6.1 6.0 99 993.8 11.4 SE 13.6 0.0 3.7
22:07 6.0 5.9 99 993.9 9.2 S 11.4 0.0 3.7
22:08 6.1 6.0 99 993.9 9.8 S 11.4 0.0 3.7
22:09 6.1 6.0 99 993.8 9.8 S 11.4 0.0 3.7
22:10 6.1 6.0 99 993.6 9.8 S 11.4 0.0 3.7
22:11 6.1 6.0 99 993.8 9.2 S 11.4 0.0 3.7
22:13 6.1 6.0 99 993.8 7.6 SE 11.4 0.0 3.7
22:14 6.0 5.9 99 993.7 8.3 S 11.4 0.0 3.7
22:16 6.1 6.0 99 993.8 9.8 SE 9.8 0.0 3.7
22:17 6.1 6.0 99 993.8 7.6 S 11.4 0.0 3.7
22:19 6.1 6.0 99 993.8 8.3 SE 11.4 0.0 3.7
22:21 6.1 6.0 99 993.7 9.2 S 11.4 0.0 3.7
22:22 6.1 6.0 99 993.7 7.6 S 11.4 0.0 3.7
22:24 6.1 6.0 99 993.5 11.4 S 11.4 0.0 3.7
22:25 6.1 6.0 99 993.5 11.4 S 11.4 0.0 3.7
22:27 6.2 6.1 99 993.4 9.2 N 11.4 0.0 3.7
22:29 6.2 6.1 99 993.3 8.3 SE 11.4 0.0 3.7
22:30 6.2 6.1 99 993.4 9.8 S 11.4 0.0 3.7
22:32 6.2 6.1 99 993.4 7.6 S 11.4 0.0 3.7
22:33 6.2 6.1 99 993.4 9.2 S 11.4 0.0 3.7
22:34 6.2 6.1 99 993.4 13.0 S 13.0 0.0 3.7
22:35 6.3 6.2 99 993.4 18.3 S 18.3 0.0 3.7
22:36 6.3 6.2 99 993.4 13.0 S 18.3 0.0 3.7
22:38 6.3 6.2 99 993.6 9.8 SE 18.3 0.0 3.7
22:39 6.3 6.2 99 993.4 13.0 SE 18.3 0.0 3.7
22:40 6.3 6.2 99 993.4 15.2 S 18.3 0.0 3.7
22:41 6.4 6.3 99 993.5 15.9 S 18.3 0.8 3.8
22:42 6.3 6.2 99 993.4 15.2 S 18.3 1.5 3.8
22:43 6.4 6.3 99 993.5 13.0 S 18.3 1.5 3.8
22:45 6.3 6.2 99 993.7 21.3 S 21.3 3.0 4.0
22:46 6.3 6.2 99 993.7 18.3 S 21.3 3.0 4.0
22:47 6.4 6.3 99 993.7 28.2 S 28.2 3.0 4.1
22:48 6.4 6.3 99 993.6 18.3 S 28.2 3.8 4.2
22:49 6.4 6.3 99 993.7 19.7 WSW 28.2 5.3 4.3
22:50 6.4 6.3 99 993.6 21.3 S 28.2 4.5 4.4
22:51 6.3 6.2 99 993.7 23.5 SE 28.2 4.5 4.5
22:53 6.3 6.2 99 993.5 20.6 WSW 28.2 4.5 4.5
22:54 6.3 6.2 99 993.7 16.8 S 28.2 4.5 4.7
22:55 6.2 6.1 99 993.6 15.9 S 28.2 4.5 4.7
22:56 6.2 6.1 99 993.7 17.4 S 28.2 6.0 5.0
22:57 6.2 6.1 99 993.4 13.0 WSW 25.1 6.0 5.0
22:58 6.1 6.0 99 993.5 12.1 WSW 25.1 6.8 5.2
23:00 6.1 6.0 99 993.5 9.8 WSW 25.1 6.0 5.2
23:01 6.1 6.0 99 993.4 9.8 WSW 23.5 3.8 5.2
23:02 6.1 6.0 99 993.5 9.8 WSW 20.6 3.0 5.2
23:03 6.1 6.0 99 993.3 9.8 WSW 17.4 1.5 5.2
23:04 6.1 6.0 99 993.5 9.8 WSW 17.4 0.8 5.2
23:06 5.8 5.7 99 993.2 13.6 S 17.4 3.0 5.5
23:07 5.8 5.7 99 993.2 13.0 S 13.6 3.0 5.5
23:08 5.7 5.6 99 992.9 11.4 WSW 14.5 3.0 5.5
23:10 5.7 5.6 99 992.9 13.0 S 14.5 3.0 5.5
23:11 5.6 5.5 99 992.9 14.5 NW 14.5 0.0 5.5
23:12 5.6 5.5 99 993.1 9.8 S 14.5 0.0 5.5
23:13 5.6 5.5 99 993.2 9.8 S 14.5 0.0 5.5
23:15 5.6 5.5 99 993.0 11.4 S 14.5 0.0 5.5
23:16 5.6 5.5 99 992.9 13.6 W 14.5 0.0 5.5
23:17 5.5 5.4 99 993.0 13.6 SE 14.5 0.0 5.5
23:18 5.6 5.5 99 993.0 14.5 NW 18.3 0.0 5.5
23:19 5.6 5.5 99 992.9 13.6 S 18.3 0.0 5.5
23:20 5.5 5.4 99 992.9 16.8 S 18.3 0.0 5.5
23:22 5.5 5.4 99 993.1 13.6 WSW 18.3 0.0 5.5
23:23 5.5 5.4 99 993.0 10.7 S 18.3 0.0 5.5
23:24 5.5 5.4 99 993.1 9.2 S 18.3 0.0 5.5
23:25 5.5 5.4 99 993.2 13.0 WSW 18.3 0.0 5.5
23:26 5.5 5.4 99 993.0 14.5 WSW 18.3 0.8 5.5
23:27 5.5 5.4 99 993.0 15.2 S 18.3 0.8 5.5
23:29 5.4 5.3 99 993.0 12.1 NW 16.8 0.8 5.5
23:30 5.4 5.3 99 993.2 11.4 WSW 16.8 0.8 5.5
23:31 5.4 5.3 99 993.1 12.1 W 15.2 0.0 5.5
23:32 5.3 5.2 99 993.1 12.1 S 15.2 0.0 5.5
23:33 5.3 5.2 99 993.1 13.0 S 15.2 0.0 5.5
23:34 5.3 5.2 99 992.8 13.6 WSW 17.4 0.0 5.5
23:35 5.3 5.2 99 992.9 10.7 WSW 17.4 0.0 5.5
23:36 5.2 5.1 99 992.7 13.0 S 17.4 0.0 5.5
23:38 5.2 5.1 99 993.0 11.4 WSW 17.4 0.0 5.5
23:39 5.2 5.1 99 993.0 9.8 S 17.4 0.0 5.5
23:40 5.2 5.1 99 992.7 11.4 S 17.4 0.0 5.5
23:41 5.2 5.1 99 992.9 8.3 WSW 17.4 0.0 5.5
23:42 5.1 5.0 99 992.8 15.2 S 17.4 0.0 5.5
23:43 5.1 5.0 99 992.8 11.4 WSW 17.4 0.0 5.5
23:45 5.1 5.0 99 992.7 10.7 S 15.2 0.0 5.5
23:46 5.1 5.0 99 992.8 13.0 S 15.2 0.0 5.5
23:47 5.1 5.0 99 992.9 9.2 S 15.2 0.0 5.5
23:48 5.1 5.0 99 992.9 10.7 S 15.2 0.0 5.5
23:49 5.1 5.0 99 993.0 11.4 S 15.2 0.0 5.5
23:50 5.0 4.9 99 993.1 12.1 S 15.2 0.0 5.5
23:51 5.0 4.9 99 993.0 13.0 WSW 15.2 0.0 5.5
23:52 5.0 4.9 99 993.2 12.1 S 15.2 0.0 5.5
23:54 5.0 4.9 99 993.1 13.6 S 13.6 0.0 5.5
23:55 5.0 4.9 99 993.1 13.0 S 13.6 0.0 5.5
23:56 5.0 4.9 99 993.0 9.2 N 14.5 0.0 5.5
23:57 5.0 4.9 99 993.1 9.2 S 14.5 0.0 5.5
23:58 5.0 4.9 99 993.0 9.8 WSW 14.5 0.0 5.5

UK - WEATHER STATION TOPSITES - UK World Weather Websites

This is a private weather station, never base important decisions or events on data from this weather station. Although every effort has been made to make the data as accurate as possible it does not meet MetOffice standards. It is proved as a guide of local weather conditions. We accept no liability for any loss which may arise from use of the data.

Copyright © Carnkie Weather 2009 - 2018.